Wetterdaten: Sonntag, 10.06.2018
Datum Zeit Temp. Aussen Temp. o. S. +5cm Feuchte Auss Luftdruck Regen Sonnenschein Regendauer Solar Windben Empfang
10.06.2018 00:00 22,4 C 19,4 C 18,9 C 88 % 1009,8 hPa 0,0 l/m 0 min 0 min 0 W/m 0,0 km/h (0 Bft) 100,00 %
10.06.2018 00:02 22,4 C 19,4 C 18,9 C 88 % 1010,0 hPa 0,0 l/m 0 min 0 min 0 W/m 0,0 km/h (0 Bft) 95,45 %
10.06.2018 00:04 22,3 C 19,4 C 18,9 C 88 % 1010,0 hPa 0,0 l/m 0 min 0 min 0 W/m 0,0 km/h (0 Bft) 100,00 %
10.06.2018 00:08 22,2 C 19,4 C 18,9 C 88 % 1010,0 hPa 0,0 l/m 0 min 0 min 0 W/m 0,0 km/h (0 Bft) 100,00 %
10.06.2018 00:10 22,2 C 19,4 C 18,9 C 88 % 1010,0 hPa 0,0 l/m 0 min 0 min 0 W/m 0,0 km/h (0 Bft) 100,00 %
10.06.2018 00:12 22,1 C 19,4 C 18,9 C 89 % 1010,1 hPa 0,0 l/m 0 min 0 min 0 W/m 0,0 km/h (0 Bft) 97,87 %
10.06.2018 00:14 22,1 C 19,4 C 18,9 C 89 % 1010,1 hPa 0,0 l/m 0 min 0 min 0 W/m 0,0 km/h (0 Bft) 97,83 %
10.06.2018 00:16 22,1 C 19,4 C 18,9 C 89 % 1010,2 hPa 0,0 l/m 0 min 0 min 0 W/m 0,0 km/h (0 Bft) 100,00 %
10.06.2018 00:18 22,0 C 19,4 C 18,9 C 89 % 1010,2 hPa 0,0 l/m 0 min 0 min 0 W/m 0,0 km/h (0 Bft) 95,74 %
10.06.2018 00:20 21,9 C 19,4 C 18,9 C 89 % 1010,1 hPa 0,0 l/m 0 min 0 min 0 W/m 2,3 km/h (1 Bft) 100,00 %
10.06.2018 00:22 21,9 C 18,9 C 18,9 C 89 % 1010,1 hPa 0,0 l/m 0 min 0 min 0 W/m 4,5 km/h (1 Bft) 100,00 %
10.06.2018 00:24 21,8 C 18,9 C 18,9 C 89 % 1010,3 hPa 0,0 l/m 0 min 0 min 0 W/m 4,5 km/h (1 Bft) 97,83 %
10.06.2018 00:26 21,7 C 18,9 C 18,9 C 90 % 1010,2 hPa 0,0 l/m 0 min 0 min 0 W/m 2,3 km/h (1 Bft) 100,00 %
10.06.2018 00:28 21,7 C 18,9 C 18,9 C 90 % 1010,2 hPa 0,0 l/m 0 min 0 min 0 W/m 0,0 km/h (0 Bft) 100,00 %
10.06.2018 00:30 21,6 C 18,9 C 18,9 C 90 % 1010,2 hPa 0,0 l/m 0 min 0 min 0 W/m 2,3 km/h (1 Bft) 100,00 %
10.06.2018 00:32 21,6 C 18,9 C 18,9 C 90 % 1010,1 hPa 0,0 l/m 0 min 0 min 0 W/m 0,0 km/h (0 Bft) 100,00 %
10.06.2018 00:34 21,5 C 18,9 C 18,9 C 90 % 1010,1 hPa 0,0 l/m 0 min 0 min 0 W/m 4,5 km/h (1 Bft) 100,00 %
10.06.2018 00:36 21,4 C 18,9 C 18,9 C 90 % 1010,1 hPa 0,0 l/m 0 min 0 min 0 W/m 2,3 km/h (1 Bft) 100,00 %
10.06.2018 00:38 21,4 C 18,9 C 18,9 C 90 % 1010,1 hPa 0,0 l/m 0 min 0 min 0 W/m 2,3 km/h (1 Bft) 100,00 %
10.06.2018 00:40 21,3 C 18,9 C 18,9 C 90 % 1010,1 hPa 0,0 l/m 0 min 0 min 0 W/m 4,5 km/h (1 Bft) 100,00 %
10.06.2018 00:42 21,3 C 18,9 C 18,9 C 90 % 1010,1 hPa 0,0 l/m 0 min 0 min 0 W/m 0,0 km/h (0 Bft) 100,00 %
10.06.2018 00:44 21,2 C 18,9 C 18,9 C 90 % 1010,0 hPa 0,0 l/m 0 min 0 min 0 W/m 4,5 km/h (1 Bft) 100,00 %
10.06.2018 00:46 21,2 C 18,9 C 18,9 C 90 % 1010,0 hPa 0,0 l/m 0 min 0 min 0 W/m 2,3 km/h (1 Bft) 100,00 %
10.06.2018 00:48 21,1 C 18,9 C 18,9 C 90 % 1010,0 hPa 0,0 l/m 0 min 0 min 0 W/m 9,0 km/h (2 Bft) 100,00 %
10.06.2018 00:50 21,1 C 18,9 C 18,9 C 90 % 1010,0 hPa 0,0 l/m 0 min 0 min 0 W/m 4,5 km/h (1 Bft) 100,00 %
10.06.2018 00:52 21,0 C 18,9 C 18,9 C 91 % 1010,0 hPa 0,0 l/m 0 min 0 min 0 W/m 0,0 km/h (0 Bft) 100,00 %
10.06.2018 00:54 21,0 C 18,9 C 18,9 C 91 % 1010,1 hPa 0,0 l/m 0 min 0 min 0 W/m 2,3 km/h (1 Bft) 100,00 %
10.06.2018 00:56 21,0 C 18,9 C 18,9 C 91 % 1010,1 hPa 0,0 l/m 0 min 0 min 0 W/m 0,0 km/h (0 Bft) 100,00 %
10.06.2018 00:58 20,9 C 18,9 C 18,9 C 91 % 1010,1 hPa 0,0 l/m 0 min 0 min 0 W/m 0,0 km/h (0 Bft) 100,00 %
10.06.2018 01:00 20,9 C 18,9 C 18,9 C 91 % 1010,1 hPa 0,0 l/m 0 min 0 min 0 W/m 2,3 km/h (1 Bft) 100,00 %
10.06.2018 01:02 20,9 C 18,9 C 18,9 C 91 % 1010,1 hPa 0,0 l/m 0 min 0 min 0 W/m 0,0 km/h (0 Bft) 97,87 %
10.06.2018 01:04 20,8 C 18,9 C 18,9 C 91 % 1010,2 hPa 0,0 l/m 0 min 0 min 0 W/m 0,0 km/h (0 Bft) 100,00 %
10.06.2018 01:06 20,8 C 18,9 C 18,9 C 91 % 1010,1 hPa 0,0 l/m 0 min 0 min 0 W/m 0,0 km/h (0 Bft) 100,00 %
10.06.2018 01:08 20,8 C 18,9 C 18,3 C 91 % 1010,1 hPa 0,0 l/m 0 min 0 min 0 W/m 0,0 km/h (0 Bft) 95,74 %
10.06.2018 01:10 20,8 C 18,9 C 18,3 C 91 % 1010,1 hPa 0,0 l/m 0 min 0 min 0 W/m 0,0 km/h (0 Bft) 100,00 %
10.06.2018 01:12 20,8 C 18,9 C 18,3 C 91 % 1010,2 hPa 0,0 l/m 0 min 0 min 0 W/m 0,0 km/h (0 Bft) 97,87 %
10.06.2018 01:14 20,8 C 18,9 C 18,3 C 91 % 1010,2 hPa 0,0 l/m 0 min 0 min 0 W/m 0,0 km/h (0 Bft) 95,74 %
10.06.2018 01:16 20,7 C 18,9 C 18,3 C 91 % 1010,3 hPa 0,0 l/m 0 min 0 min 0 W/m 0,0 km/h (0 Bft) 93,48 %
10.06.2018 01:18 20,7 C 18,9 C 18,3 C 91 % 1010,4 hPa 0,0 l/m 0 min 0 min 0 W/m 0,0 km/h (0 Bft) 97,87 %
10.06.2018 01:20 20,7 C 18,9 C 18,3 C 91 % 1010,3 hPa 0,0 l/m 0 min 0 min 0 W/m 0,0 km/h (0 Bft) 97,87 %
10.06.2018 01:22 20,7 C 18,9 C 18,9 C 91 % 1010,3 hPa 0,0 l/m 0 min 0 min 0 W/m 0,0 km/h (0 Bft) 95,83 %
10.06.2018 01:24 20,7 C 18,9 C 18,9 C 91 % 1010,3 hPa 0,0 l/m 0 min 0 min 0 W/m 0,0 km/h (0 Bft) 95,74 %
10.06.2018 01:26 20,7 C 18,9 C 18,9 C 91 % 1010,1 hPa 0,0 l/m 0 min 0 min 0 W/m 0,0 km/h (0 Bft) 97,83 %
10.06.2018 01:28 20,7 C 18,9 C 18,9 C 92 % 1010,1 hPa 0,0 l/m 0 min 0 min 0 W/m 0,0 km/h (0 Bft) 95,74 %
10.06.2018 01:30 20,7 C 18,9 C 18,9 C 92 % 1010,1 hPa 0,0 l/m 0 min 0 min 0 W/m 0,0 km/h (0 Bft) 95,74 %
10.06.2018 01:32 20,7 C 18,9 C 18,9 C 92 % 1010,1 hPa 0,0 l/m 0 min 0 min 0 W/m 0,0 km/h (0 Bft) 95,74 %
10.06.2018 01:34 20,7 C 18,9 C 18,3 C 92 % 1010,1 hPa 0,0 l/m 0 min 0 min 0 W/m 0,0 km/h (0 Bft) 95,74 %
10.06.2018 01:36 20,7 C 18,9 C 18,3 C 92 % 1010,1 hPa 0,0 l/m 0 min 0 min 0 W/m 0,0 km/h (0 Bft) 95,74 %
10.06.2018 01:38 20,7 C 18,9 C 18,3 C 92 % 1010,0 hPa 0,0 l/m 0 min 0 min 0 W/m 0,0 km/h (0 Bft) 95,74 %
10.06.2018 01:40 20,7 C 18,9 C 18,3 C 92 % 1010,0 hPa 0,0 l/m 0 min 0 min 0 W/m 0,0 km/h (0 Bft) 95,74 %
10.06.2018 01:42 20,6 C 18,9 C 18,3 C 92 % 1010,0 hPa 0,0 l/m 0 min 0 min 0 W/m 0,0 km/h (0 Bft) 95,74 %
10.06.2018 01:44 20,6 C 18,9 C 18,3 C 92 % 1010,0 hPa 0,0 l/m 0 min 0 min 0 W/m 0,0 km/h (0 Bft) 93,62 %
10.06.2018 01:46 20,6 C 18,9 C 18,3 C 92 % 1010,0 hPa 0,0 l/m 0 min 0 min 0 W/m 0,0 km/h (0 Bft) 97,83 %
10.06.2018 01:48 20,6 C 18,9 C 18,3 C 92 % 1010,0 hPa 0,0 l/m 0 min 0 min 0 W/m 0,0 km/h (0 Bft) 95,74 %
10.06.2018 01:50 20,6 C 18,9 C 18,3 C 92 % 1010,0 hPa 0,0 l/m 0 min 0 min 0 W/m 0,0 km/h (0 Bft) 95,74 %
10.06.2018 01:52 20,6 C 18,9 C 18,3 C 92 % 1010,0 hPa 0,0 l/m 0 min 0 min 0 W/m 0,0 km/h (0 Bft) 93,62 %
10.06.2018 01:54 20,5 C 18,9 C 18,3 C 92 % 1010,0 hPa 0,0 l/m 0 min 0 min 0 W/m 0,0 km/h (0 Bft) 91,49 %
10.06.2018 01:56 20,5 C 18,9 C 18,3 C 92 % 1010,0 hPa 0,0 l/m 0 min 0 min 0 W/m 0,0 km/h (0 Bft) 91,49 %
10.06.2018 01:58 20,5 C 18,9 C 18,3 C 92 % 1009,9 hPa 0,0 l/m 0 min 0 min 0 W/m 0,0 km/h (0 Bft) 91,30 %
10.06.2018 02:00 20,5 C 18,9 C 18,3 C 93 % 1009,9 hPa 0,0 l/m 0 min 0 min 0 W/m 0,0 km/h (0 Bft) 91,49 %
10.06.2018 02:02 20,5 C 18,9 C 18,3 C 92 % 1009,9 hPa 0,0 l/m 0 min 0 min 0 W/m 0,0 km/h (0 Bft) 91,49 %
10.06.2018 02:04 20,4 C 18,9 C 18,3 C 92 % 1009,9 hPa 0,0 l/m 0 min 0 min 0 W/m 0,0 km/h (0 Bft) 93,62 %
10.06.2018 02:06 20,4 C 18,9 C 18,3 C 93 % 1009,9 hPa 0,0 l/m 0 min 0 min 0 W/m 0,0 km/h (0 Bft) 91,49 %
10.06.2018 02:08 20,4 C 18,9 C 18,3 C 93 % 1009,8 hPa 0,0 l/m 0 min 0 min 0 W/m 0,0 km/h (0 Bft) 93,48 %
10.06.2018 02:10 20,4 C 18,9 C 18,3 C 93 % 1009,8 hPa 0,0 l/m 0 min 0 min 0 W/m 0,0 km/h (0 Bft) 93,62 %
10.06.2018 02:12 20,4 C 18,9 C 18,3 C 93 % 1009,9 hPa 0,0 l/m 0 min 0 min 0 W/m 0,0 km/h (0 Bft) 91,49 %
10.06.2018 02:14 20,4 C 18,9 C 18,3 C 93 % 1009,8 hPa 0,0 l/m 0 min 0 min 0 W/m 0,0 km/h (0 Bft) 93,62 %
10.06.2018 02:16 20,4 C 18,9 C 18,3 C 93 % 1009,8 hPa 0,0 l/m 0 min 0 min 0 W/m 2,3 km/h (1 Bft) 95,74 %
10.06.2018 02:18 20,4 C 18,9 C 18,3 C 93 % 1009,7 hPa 0,0 l/m 0 min 0 min 0 W/m 0,0 km/h (0 Bft) 94,34 %
10.06.2018 02:20 20,4 C 18,9 C 18,3 C 93 % 1009,7 hPa 0,0 l/m 0 min 0 min 0 W/m 0,0 km/h (0 Bft) 97,87 %
10.06.2018 02:22 20,3 C 18,9 C 18,3 C 93 % 1009,8 hPa 0,0 l/m 0 min 0 min 0 W/m 0,0 km/h (0 Bft) 97,87 %
10.06.2018 02:24 20,3 C 18,9 C 18,3 C 93 % 1009,8 hPa 0,0 l/m 0 min 0 min 0 W/m 0,0 km/h (0 Bft) 95,74 %
10.06.2018 02:26 20,3 C 18,9 C 18,3 C 93 % 1009,8 hPa 0,0 l/m 0 min 0 min 0 W/m 0,0 km/h (0 Bft) 97,87 %
10.06.2018 02:28 20,3 C 18,9 C 18,3 C 93 % 1009,8 hPa 0,0 l/m 0 min 0 min 0 W/m 0,0 km/h (0 Bft) 94,74 %
10.06.2018 02:30 20,2 C 18,9 C 18,3 C 94 % 1009,7 hPa 0,0 l/m 0 min 0 min 0 W/m 0,0 km/h (0 Bft) 97,92 %
10.06.2018 02:32 20,2 C 18,9 C 18,3 C 94 % 1009,6 hPa 0,0 l/m 0 min 0 min 0 W/m 0,0 km/h (0 Bft) 97,87 %
10.06.2018 02:34 20,2 C 18,9 C 18,3 C 94 % 1009,7 hPa 0,0 l/m 0 min 0 min 0 W/m 0,0 km/h (0 Bft) 97,87 %
10.06.2018 02:36 20,2 C 18,9 C 18,3 C 94 % 1009,7 hPa 0,0 l/m 0 min 0 min 0 W/m 0,0 km/h (0 Bft) 96,23 %
10.06.2018 02:38 20,2 C 18,9 C 18,3 C 94 % 1009,8 hPa 0,0 l/m 0 min 0 min 0 W/m 0,0 km/h (0 Bft) 97,87 %
10.06.2018 02:40 20,1 C 18,9 C 18,3 C 94 % 1009,8 hPa 0,0 l/m 0 min 0 min 0 W/m 0,0 km/h (0 Bft) 97,87 %
10.06.2018 02:42 20,1 C 18,9 C 18,3 C 94 % 1009,8 hPa 0,0 l/m 0 min 0 min 0 W/m 0,0 km/h (0 Bft) 100,00 %
10.06.2018 02:44 20,1 C 18,3 C 18,3 C 93 % 1009,9 hPa 0,0 l/m 0 min 0 min 0 W/m 0,0 km/h (0 Bft) 97,87 %
10.06.2018 02:46 20,1 C 18,9 C 18,3 C 93 % 1009,9 hPa 0,0 l/m 0 min 0 min 0 W/m 4,5 km/h (1 Bft) 100,00 %
10.06.2018 02:48 20,1 C 18,9 C 18,3 C 94 % 1009,9 hPa 0,0 l/m 0 min 0 min 0 W/m 6,8 km/h (2 Bft) 100,00 %
10.06.2018 02:50 20,1 C 18,9 C 18,3 C 94 % 1009,8 hPa 0,0 l/m 0 min 0 min 0 W/m 11,3 km/h (2 Bft) 100,00 %
10.06.2018 02:52 20,1 C 18,9 C 18,3 C 94 % 1009,8 hPa 0,0 l/m 0 min 0 min 0 W/m 6,8 km/h (2 Bft) 97,92 %
10.06.2018 02:54 20,1 C 18,9 C 18,3 C 94 % 1009,9 hPa 0,0 l/m 0 min 0 min 0 W/m 6,8 km/h (2 Bft) 100,00 %
10.06.2018 02:56 20,1 C 18,3 C 18,3 C 94 % 1010,0 hPa 0,0 l/m 0 min 0 min 0 W/m 6,8 km/h (2 Bft) 100,00 %
10.06.2018 02:58 20,0 C 18,3 C 18,3 C 94 % 1010,0 hPa 0,0 l/m 0 min 0 min 0 W/m 9,0 km/h (2 Bft) 100,00 %
10.06.2018 03:00 19,9 C 18,3 C 18,3 C 94 % 1010,0 hPa 0,0 l/m 0 min 0 min 0 W/m 6,8 km/h (2 Bft) 100,00 %
10.06.2018 03:02 19,9 C 18,3 C 18,3 C 94 % 1009,9 hPa 0,0 l/m 0 min 0 min 0 W/m 6,8 km/h (2 Bft) 100,00 %
10.06.2018 03:04 19,9 C 18,3 C 18,3 C 94 % 1009,9 hPa 0,0 l/m 0 min 0 min 0 W/m 4,5 km/h (1 Bft) 100,00 %
10.06.2018 03:06 19,8 C 18,3 C 18,3 C 94 % 1009,9 hPa 0,0 l/m 0 min 0 min 0 W/m 6,8 km/h (2 Bft) 100,00 %
10.06.2018 03:08 19,7 C 18,3 C 17,8 C 94 % 1009,9 hPa 0,0 l/m 0 min 0 min 0 W/m 4,5 km/h (1 Bft) 100,00 %
10.06.2018 03:10 19,7 C 18,3 C 17,8 C 94 % 1009,9 hPa 0,0 l/m 0 min 0 min 0 W/m 2,3 km/h (1 Bft) 100,00 %
10.06.2018 03:12 19,6 C 18,3 C 17,8 C 94 % 1009,9 hPa 0,0 l/m 0 min 0 min 0 W/m 0,0 km/h (0 Bft) 100,00 %
10.06.2018 03:14 19,6 C 18,3 C 17,8 C 94 % 1009,9 hPa 0,0 l/m 0 min 0 min 0 W/m 0,0 km/h (0 Bft) 97,87 %
10.06.2018 03:16 19,6 C 18,3 C 17,8 C 94 % 1009,9 hPa 0,0 l/m 0 min 0 min 0 W/m 0,0 km/h (0 Bft) 97,87 %
10.06.2018 03:18 19,5 C 18,3 C 17,8 C 94 % 1009,9 hPa 0,0 l/m 0 min 0 min 0 W/m 0,0 km/h (0 Bft) 100,00 %
10.06.2018 03:20 19,5 C 18,3 C 17,8 C 94 % 1009,9 hPa 0,0 l/m 0 min 0 min 0 W/m 0,0 km/h (0 Bft) 100,00 %
10.06.2018 03:22 19,4 C 18,3 C 17,8 C 94 % 1009,9 hPa 0,0 l/m 0 min 0 min 0 W/m 0,0 km/h (0 Bft) 100,00 %
10.06.2018 03:24 19,4 C 18,3 C 17,8 C 94 % 1009,9 hPa 0,0 l/m 0 min 0 min 0 W/m 0,0 km/h (0 Bft) 100,00 %
10.06.2018 03:26 19,4 C 18,3 C 17,8 C 94 % 1009,9 hPa 0,0 l/m 0 min 0 min 0 W/m 0,0 km/h (0 Bft) 100,00 %
10.06.2018 03:28 19,4 C 18,3 C 17,8 C 94 % 1009,9 hPa 0,0 l/m 0 min 0 min 0 W/m 0,0 km/h (0 Bft) 100,00 %
10.06.2018 03:30 19,4 C 18,3 C 17,8 C 94 % 1009,9 hPa 0,0 l/m 0 min 0 min 0 W/m 0,0 km/h (0 Bft) 100,00 %
10.06.2018 03:32 19,4 C 18,3 C 17,8 C 94 % 1009,9 hPa 0,0 l/m 0 min 0 min 0 W/m 0,0 km/h (0 Bft) 100,00 %
10.06.2018 03:34 19,3 C 18,3 C 17,8 C 94 % 1009,9 hPa 0,0 l/m 0 min 0 min 0 W/m 0,0 km/h (0 Bft) 100,00 %
10.06.2018 03:36 19,3 C 17,8 C 17,8 C 94 % 1009,9 hPa 0,0 l/m 0 min 0 min 0 W/m 0,0 km/h (0 Bft) 100,00 %
10.06.2018 03:38 19,3 C 17,8 C 17,8 C 94 % 1009,9 hPa 0,0 l/m 0 min 0 min 0 W/m 0,0 km/h (0 Bft) 100,00 %
10.06.2018 03:40 19,3 C 17,8 C 17,8 C 94 % 1009,8 hPa 0,0 l/m 0 min 0 min 0 W/m 0,0 km/h (0 Bft) 100,00 %
10.06.2018 03:42 19,2 C 17,8 C 17,8 C 94 % 1009,8 hPa 0,0 l/m 0 min 0 min 0 W/m 0,0 km/h (0 Bft) 100,00 %
10.06.2018 03:44 19,2 C 17,8 C 17,8 C 94 % 1009,7 hPa 0,0 l/m 0 min 0 min 0 W/m 0,0 km/h (0 Bft) 100,00 %
10.06.2018 03:46 19,2 C 17,8 C 17,8 C 94 % 1009,7 hPa 0,0 l/m 0 min 0 min 0 W/m 0,0 km/h (0 Bft) 100,00 %
10.06.2018 03:48 19,2 C 17,8 C 17,8 C 94 % 1009,7 hPa 0,0 l/m 0 min 0 min 0 W/m 0,0 km/h (0 Bft) 100,00 %
10.06.2018 03:50 19,2 C 17,8 C 17,8 C 94 % 1009,6 hPa 0,0 l/m 0 min 0 min 0 W/m 0,0 km/h (0 Bft) 97,87 %
10.06.2018 03:52 19,2 C 17,8 C 17,2 C 94 % 1009,7 hPa 0,0 l/m 0 min 0 min 0 W/m 0,0 km/h (0 Bft) 100,00 %
10.06.2018 03:54 19,2 C 17,8 C 17,2 C 94 % 1009,6 hPa 0,0 l/m 0 min 0 min 0 W/m 0,0 km/h (0 Bft) 100,00 %
10.06.2018 03:56 19,1 C 17,8 C 17,2 C 94 % 1009,5 hPa 0,0 l/m 0 min 0 min 0 W/m 0,0 km/h (0 Bft) 100,00 %
10.06.2018 03:58 19,1 C 18,3 C 17,2 C 94 % 1009,4 hPa 0,0 l/m 0 min 0 min 0 W/m 0,0 km/h (0 Bft) 97,87 %
10.06.2018 04:00 19,1 C 17,8 C 17,8 C 94 % 1009,5 hPa 0,0 l/m 0 min 0 min 0 W/m 0,0 km/h (0 Bft) 97,87 %
10.06.2018 04:02 19,1 C 17,8 C 17,8 C 94 % 1009,4 hPa 0,0 l/m 0 min 0 min 0 W/m 0,0 km/h (0 Bft) 100,00 %
10.06.2018 04:04 19,1 C 17,8 C 17,8 C 94 % 1009,4 hPa 0,0 l/m 0 min 0 min 0 W/m 0,0 km/h (0 Bft) 95,74 %
10.06.2018 04:06 19,1 C 17,8 C 17,2 C 94 % 1009,4 hPa 0,0 l/m 0 min 0 min 0 W/m 0,0 km/h (0 Bft) 100,00 %
10.06.2018 04:08 19,0 C 17,8 C 17,8 C 94 % 1009,4 hPa 0,0 l/m 0 min 0 min 0 W/m 0,0 km/h (0 Bft) 97,87 %
10.06.2018 04:10 19,0 C 17,8 C 17,8 C 94 % 1009,4 hPa 0,0 l/m 0 min 0 min 0 W/m 0,0 km/h (0 Bft) 97,87 %
10.06.2018 04:12 18,9 C 17,8 C 17,8 C 94 % 1009,4 hPa 0,0 l/m 0 min 0 min 0 W/m 0,0 km/h (0 Bft) 97,87 %
10.06.2018 04:14 18,9 C 17,8 C 17,2 C 94 % 1009,3 hPa 0,0 l/m 0 min 0 min 0 W/m 0,0 km/h (0 Bft) 97,87 %
10.06.2018 04:16 18,9 C 17,8 C 17,2 C 94 % 1009,3 hPa 0,0 l/m 0 min 0 min 0 W/m 0,0 km/h (0 Bft) 95,74 %
10.06.2018 04:18 18,9 C 17,8 C 17,2 C 94 % 1009,3 hPa 0,0 l/m 0 min 0 min 0 W/m 0,0 km/h (0 Bft) 97,83 %
10.06.2018 04:20 18,9 C 17,8 C 17,2 C 94 % 1009,3 hPa 0,0 l/m 0 min 0 min 0 W/m 0,0 km/h (0 Bft) 97,87 %
10.06.2018 04:22 18,8 C 17,8 C 17,2 C 94 % 1009,3 hPa 0,0 l/m 0 min 0 min 0 W/m 0,0 km/h (0 Bft) 95,74 %
10.06.2018 04:24 18,8 C 17,8 C 17,2 C 94 % 1009,3 hPa 0,0 l/m 0 min 0 min 0 W/m 0,0 km/h (0 Bft) 97,87 %
10.06.2018 04:26 18,8 C 17,8 C 17,2 C 94 % 1009,4 hPa 0,0 l/m 0 min 0 min 0 W/m 0,0 km/h (0 Bft) 97,87 %
10.06.2018 04:28 18,8 C 17,8 C 17,2 C 94 % 1009,3 hPa 0,0 l/m 0 min 0 min 0 W/m 0,0 km/h (0 Bft) 97,87 %
10.06.2018 04:30 18,8 C 17,8 C 17,2 C 94 % 1009,3 hPa 0,0 l/m 0 min 0 min 0 W/m 0,0 km/h (0 Bft) 97,83 %
10.06.2018 04:32 18,8 C 17,8 C 17,2 C 94 % 1009,3 hPa 0,0 l/m 0 min 0 min 0 W/m 0,0 km/h (0 Bft) 97,87 %
10.06.2018 04:34 18,7 C 17,8 C 17,2 C 94 % 1009,3 hPa 0,0 l/m 0 min 0 min 0 W/m 0,0 km/h (0 Bft) 100,00 %
10.06.2018 04:38 18,7 C 17,8 C 17,2 C 94 % 1009,2 hPa 0,0 l/m 0 min 0 min 0 W/m 0,0 km/h (0 Bft) 96,81 %
10.06.2018 04:40 18,7 C 17,8 C 17,2 C 94 % 1009,2 hPa 0,0 l/m 0 min 0 min 0 W/m 0,0 km/h (0 Bft) 95,65 %
10.06.2018 04:42 18,7 C 17,8 C 17,2 C 95 % 1009,2 hPa 0,0 l/m 0 min 0 min 0 W/m 0,0 km/h (0 Bft) 97,87 %
10.06.2018 04:44 18,7 C 17,8 C 17,2 C 95 % 1009,2 hPa 0,0 l/m 0 min 0 min 0 W/m 0,0 km/h (0 Bft) 93,62 %
10.06.2018 04:46 18,7 C 17,8 C 17,2 C 95 % 1009,2 hPa 0,0 l/m 0 min 0 min 0 W/m 0,0 km/h (0 Bft) 93,62 %
10.06.2018 04:48 18,7 C 17,8 C 17,2 C 95 % 1009,2 hPa 0,0 l/m 0 min 0 min 0 W/m 0,0 km/h (0 Bft) 95,74 %
10.06.2018 04:50 18,6 C 17,8 C 17,2 C 95 % 1009,1 hPa 0,0 l/m 0 min 0 min 0 W/m 0,0 km/h (0 Bft) 95,74 %
10.06.2018 04:52 18,6 C 17,8 C 17,2 C 94 % 1009,2 hPa 0,0 l/m 0 min 0 min 0 W/m 0,0 km/h (0 Bft) 93,62 %
10.06.2018 04:54 18,6 C 17,8 C 17,2 C 95 % 1009,1 hPa 0,0 l/m 0 min 0 min 0 W/m 0,0 km/h (0 Bft) 95,65 %
10.06.2018 04:56 18,6 C 17,8 C 17,2 C 95 % 1009,1 hPa 0,0 l/m 0 min 0 min 0 W/m 0,0 km/h (0 Bft) 97,87 %
10.06.2018 04:58 18,6 C 17,8 C 17,2 C 95 % 1009,1 hPa 0,0 l/m 0 min 0 min 0 W/m 0,0 km/h (0 Bft) 97,87 %
10.06.2018 05:00 18,6 C 17,8 C 17,2 C 95 % 1009,1 hPa 0,0 l/m 0 min 0 min 0 W/m 0,0 km/h (0 Bft) 97,87 %
10.06.2018 05:02 18,6 C 17,8 C 17,2 C 95 % 1009,2 hPa 0,0 l/m 0 min 0 min 0 W/m 0,0 km/h (0 Bft) 96,00 %
10.06.2018 05:04 18,6 C 17,8 C 17,2 C 95 % 1009,2 hPa 0,0 l/m 0 min 0 min 0 W/m 0,0 km/h (0 Bft) 95,65 %
10.06.2018 05:06 18,6 C 17,8 C 17,2 C 95 % 1009,1 hPa 0,0 l/m 0 min 0 min 0 W/m 0,0 km/h (0 Bft) 93,62 %
10.06.2018 05:08 18,5 C 17,8 C 17,2 C 95 % 1009,1 hPa 0,0 l/m 0 min 0 min 0 W/m 0,0 km/h (0 Bft) 95,74 %
10.06.2018 05:10 18,5 C 17,8 C 17,2 C 95 % 1009,1 hPa 0,0 l/m 0 min 0 min 0 W/m 0,0 km/h (0 Bft) 93,62 %
10.06.2018 05:12 18,5 C 17,2 C 17,2 C 95 % 1009,2 hPa 0,0 l/m 0 min 0 min 0 W/m 0,0 km/h (0 Bft) 95,74 %
10.06.2018 05:14 18,5 C 17,2 C 17,2 C 95 % 1009,2 hPa 0,0 l/m 0 min 0 min 0 W/m 0,0 km/h (0 Bft) 95,74 %
10.06.2018 05:16 18,5 C 17,2 C 17,2 C 95 % 1009,2 hPa 0,0 l/m 0 min 0 min 0 W/m 0,0 km/h (0 Bft) 93,48 %
10.06.2018 05:18 18,5 C 17,8 C 17,2 C 95 % 1009,2 hPa 0,0 l/m 0 min 0 min 0 W/m 0,0 km/h (0 Bft) 95,74 %
10.06.2018 05:20 18,5 C 17,2 C 17,2 C 95 % 1009,2 hPa 0,0 l/m 0 min 0 min 0 W/m 0,0 km/h (0 Bft) 93,62 %
10.06.2018 05:22 18,5 C 17,2 C 17,2 C 95 % 1009,1 hPa 0,0 l/m 0 min 0 min 0 W/m 0,0 km/h (0 Bft) 93,62 %
10.06.2018 05:24 18,5 C 17,2 C 17,2 C 95 % 1009,1 hPa 0,0 l/m 0 min 0 min 0 W/m 0,0 km/h (0 Bft) 91,49 %
10.06.2018 05:26 18,5 C 17,2 C 17,2 C 95 % 1009,1 hPa 0,0 l/m 0 min 0 min 0 W/m 0,0 km/h (0 Bft) 95,65 %
10.06.2018 05:28 18,5 C 17,2 C 17,2 C 95 % 1009,1 hPa 0,0 l/m 0 min 0 min 0 W/m 0,0 km/h (0 Bft) 91,49 %
10.06.2018 05:30 18,4 C 17,2 C 17,2 C 95 % 1009,0 hPa 0,0 l/m 0 min 0 min 0 W/m 0,0 km/h (0 Bft) 95,74 %
10.06.2018 05:32 18,4 C 17,2 C 17,2 C 95 % 1009,0 hPa 0,0 l/m 0 min 0 min 0 W/m 0,0 km/h (0 Bft) 95,74 %
10.06.2018 05:34 18,4 C 17,2 C 17,2 C 95 % 1009,0 hPa 0,0 l/m 0 min 0 min 3 W/m 2,3 km/h (1 Bft) 95,74 %
10.06.2018 05:35 18,4 C 17,2 C 17,2 C 95 % 1009,0 hPa 0,0 l/m 0 min 0 min 3 W/m 2,3 km/h (1 Bft) 99,12 %
10.06.2018 05:42 18,4 C 17,2 C 17,2 C 96 % 1009,1 hPa 0,0 l/m 0 min 0 min 7 W/m 0,0 km/h (0 Bft) 97,06 %
10.06.2018 05:44 18,3 C 17,2 C 17,2 C 96 % 1009,1 hPa 0,0 l/m 0 min 0 min 7 W/m 0,0 km/h (0 Bft) 97,14 %
10.06.2018 05:45 18,3 C 17,2 C 17,2 C 96 % 1009,2 hPa 0,0 l/m 0 min 0 min 9 W/m 0,0 km/h (0 Bft) 97,14 %
10.06.2018 05:46 18,3 C 17,2 C 17,2 C 96 % 1009,2 hPa 0,0 l/m 0 min 0 min 8 W/m 0,0 km/h (0 Bft) 98,18 %
10.06.2018 05:48 18,3 C 17,2 C 17,2 C 96 % 1009,2 hPa 0,0 l/m 0 min 0 min 9 W/m 2,3 km/h (1 Bft) 97,87 %
10.06.2018 05:50 18,3 C 17,2 C 16,7 C 96 % 1009,1 hPa 0,0 l/m 0 min 0 min 9 W/m 2,3 km/h (1 Bft) 95,74 %
10.06.2018 05:52 18,3 C 17,2 C 16,7 C 96 % 1009,1 hPa 0,0 l/m 0 min 0 min 11 W/m 0,0 km/h (0 Bft) 93,75 %
10.06.2018 05:54 18,2 C 17,2 C 16,7 C 96 % 1009,1 hPa 0,0 l/m 0 min 0 min 11 W/m 2,3 km/h (1 Bft) 97,87 %
10.06.2018 05:56 18,2 C 17,2 C 16,7 C 96 % 1009,1 hPa 0,0 l/m 0 min 0 min 12 W/m 2,3 km/h (1 Bft) 97,83 %
10.06.2018 05:58 18,2 C 17,2 C 16,7 C 96 % 1009,1 hPa 0,0 l/m 0 min 0 min 13 W/m 2,3 km/h (1 Bft) 97,96 %
10.06.2018 06:00 18,2 C 17,2 C 16,7 C 96 % 1009,0 hPa 0,0 l/m 0 min 0 min 14 W/m 2,3 km/h (1 Bft) 97,87 %
10.06.2018 06:02 18,1 C 17,2 C 16,7 C 96 % 1009,1 hPa 0,0 l/m 0 min 0 min 15 W/m 6,8 km/h (2 Bft) 95,74 %
10.06.2018 06:04 18,1 C 17,2 C 16,7 C 96 % 1009,0 hPa 0,0 l/m 0 min 0 min 16 W/m 2,3 km/h (1 Bft) 97,87 %
10.06.2018 06:08 18,1 C 17,2 C 16,7 C 96 % 1009,0 hPa 0,0 l/m 0 min 0 min 16 W/m 2,3 km/h (1 Bft) 96,81 %
10.06.2018 06:10 18,1 C 17,2 C 16,7 C 96 % 1009,0 hPa 0,0 l/m 0 min 0 min 18 W/m 0,0 km/h (0 Bft) 97,14 %
10.06.2018 06:12 18,0 C 17,2 C 16,7 C 96 % 1009,0 hPa 0,0 l/m 0 min 0 min 18 W/m 2,3 km/h (1 Bft) 97,87 %
10.06.2018 06:14 18,0 C 17,2 C 16,7 C 96 % 1009,0 hPa 0,0 l/m 0 min 0 min 19 W/m 2,3 km/h (1 Bft) 100,00 %
10.06.2018 06:16 18,0 C 17,2 C 16,7 C 96 % 1009,0 hPa 0,0 l/m 0 min 0 min 19 W/m 2,3 km/h (1 Bft) 100,00 %
10.06.2018 06:18 17,9 C 17,2 C 16,7 C 96 % 1008,9 hPa 0,0 l/m 0 min 0 min 19 W/m 0,0 km/h (0 Bft) 100,00 %
10.06.2018 06:20 17,9 C 17,2 C 16,7 C 96 % 1008,9 hPa 0,0 l/m 0 min 0 min 19 W/m 2,3 km/h (1 Bft) 97,87 %
10.06.2018 06:22 17,9 C 17,2 C 16,7 C 96 % 1008,9 hPa 0,0 l/m 0 min 0 min 19 W/m 0,0 km/h (0 Bft) 100,00 %
10.06.2018 06:24 17,9 C 17,2 C 16,7 C 96 % 1008,9 hPa 0,0 l/m 0 min 0 min 19 W/m 2,3 km/h (1 Bft) 100,00 %
10.06.2018 06:26 17,8 C 17,2 C 16,7 C 96 % 1008,9 hPa 0,0 l/m 0 min 0 min 21 W/m 0,0 km/h (0 Bft) 100,00 %
10.06.2018 06:28 17,8 C 17,2 C 16,7 C 96 % 1008,8 hPa 0,0 l/m 0 min 0 min 21 W/m 2,3 km/h (1 Bft) 100,00 %
10.06.2018 06:30 17,8 C 17,2 C 16,7 C 96 % 1008,9 hPa 0,0 l/m 0 min 0 min 23 W/m 4,5 km/h (1 Bft) 97,83 %
10.06.2018 06:32 17,8 C 16,7 C 16,7 C 96 % 1008,9 hPa 0,0 l/m 0 min 0 min 25 W/m 6,8 km/h (2 Bft) 100,00 %
10.06.2018 06:34 17,8 C 17,2 C 16,7 C 96 % 1008,9 hPa 0,0 l/m 0 min 0 min 25 W/m 2,3 km/h (1 Bft) 100,00 %
10.06.2018 06:36 17,7 C 17,2 C 16,7 C 96 % 1008,9 hPa 0,0 l/m 0 min 0 min 27 W/m 4,5 km/h (1 Bft) 97,87 %
10.06.2018 06:38 17,7 C 17,2 C 16,7 C 96 % 1008,9 hPa 0,0 l/m 0 min 0 min 29 W/m 2,3 km/h (1 Bft) 97,87 %
10.06.2018 06:40 17,7 C 17,2 C 16,7 C 96 % 1009,0 hPa 0,0 l/m 0 min 0 min 33 W/m 4,5 km/h (1 Bft) 100,00 %
10.06.2018 06:42 17,7 C 17,2 C 16,7 C 96 % 1009,0 hPa 0,0 l/m 0 min 0 min 36 W/m 4,5 km/h (1 Bft) 100,00 %
10.06.2018 06:44 17,7 C 17,2 C 16,7 C 96 % 1009,1 hPa 0,0 l/m 0 min 0 min 37 W/m 4,5 km/h (1 Bft) 100,00 %
10.06.2018 06:46 17,6 C 17,2 C 16,7 C 96 % 1009,1 hPa 0,0 l/m 0 min 0 min 37 W/m 0,0 km/h (0 Bft) 95,74 %
10.06.2018 06:48 17,6 C 17,2 C 16,7 C 96 % 1009,1 hPa 0,0 l/m 0 min 0 min 37 W/m 0,0 km/h (0 Bft) 97,87 %
10.06.2018 06:50 17,6 C 17,2 C 16,7 C 96 % 1009,3 hPa 0,0 l/m 0 min 0 min 39 W/m 4,5 km/h (1 Bft) 97,87 %
10.06.2018 06:52 17,6 C 17,2 C 16,7 C 96 % 1009,3 hPa 0,0 l/m 0 min 0 min 42 W/m 4,5 km/h (1 Bft) 96,49 %
10.06.2018 06:54 17,6 C 17,2 C 16,7 C 96 % 1009,4 hPa 0,0 l/m 0 min 0 min 45 W/m 2,3 km/h (1 Bft) 97,87 %
10.06.2018 06:56 17,6 C 17,2 C 16,7 C 96 % 1009,4 hPa 0,0 l/m 0 min 0 min 47 W/m 4,5 km/h (1 Bft) 97,87 %
10.06.2018 06:58 17,6 C 17,2 C 16,7 C 96 % 1009,4 hPa 0,0 l/m 0 min 0 min 50 W/m 4,5 km/h (1 Bft) 97,87 %
10.06.2018 07:00 17,6 C 17,2 C 16,7 C 96 % 1009,4 hPa 0,0 l/m 0 min 0 min 52 W/m 2,3 km/h (1 Bft) 97,87 %
10.06.2018 07:02 17,6 C 17,2 C 16,7 C 96 % 1009,5 hPa 0,0 l/m 0 min 0 min 54 W/m 2,3 km/h (1 Bft) 97,87 %
10.06.2018 07:04 17,5 C 17,2 C 16,7 C 96 % 1009,4 hPa 0,0 l/m 0 min 0 min 55 W/m 2,3 km/h (1 Bft) 97,87 %
10.06.2018 07:06 17,5 C 17,2 C 16,7 C 96 % 1009,4 hPa 0,0 l/m 0 min 0 min 57 W/m 0,0 km/h (0 Bft) 95,74 %
10.06.2018 07:08 17,6 C 17,2 C 16,7 C 96 % 1009,4 hPa 0,0 l/m 0 min 0 min 59 W/m 2,3 km/h (1 Bft) 97,87 %
10.06.2018 07:10 17,5 C 17,2 C 16,7 C 96 % 1009,4 hPa 0,0 l/m 0 min 0 min 62 W/m 0,0 km/h (0 Bft) 97,56 %
10.06.2018 07:12 17,6 C 17,2 C 16,7 C 96 % 1009,4 hPa 0,0 l/m 0 min 0 min 63 W/m 0,0 km/h (0 Bft) 97,87 %
10.06.2018 07:14 17,5 C 17,2 C 16,7 C 96 % 1009,4 hPa 0,0 l/m 0 min 0 min 65 W/m 0,0 km/h (0 Bft) 97,87 %
10.06.2018 07:16 17,6 C 17,2 C 16,7 C 96 % 1009,4 hPa 0,0 l/m 0 min 0 min 69 W/m 0,0 km/h (0 Bft) 97,87 %
10.06.2018 07:18 17,6 C 17,2 C 16,7 C 96 % 1009,5 hPa 0,0 l/m 0 min 0 min 74 W/m 0,0 km/h (0 Bft) 97,83 %
10.06.2018 07:20 17,6 C 17,8 C 16,7 C 96 % 1009,5 hPa 0,0 l/m 0 min 0 min 80 W/m 9,0 km/h (2 Bft) 97,96 %
10.06.2018 07:22 17,6 C 17,8 C 16,7 C 96 % 1009,7 hPa 0,0 l/m 0 min 0 min 86 W/m 4,5 km/h (1 Bft) 95,74 %
10.06.2018 07:24 17,5 C 17,8 C 16,7 C 96 % 1009,7 hPa 0,0 l/m 0 min 0 min 89 W/m 2,3 km/h (1 Bft) 97,87 %
10.06.2018 07:26 17,6 C 17,8 C 16,7 C 96 % 1009,7 hPa 0,0 l/m 0 min 0 min 92 W/m 2,3 km/h (1 Bft) 97,87 %
10.06.2018 07:28 17,5 C 17,8 C 16,7 C 96 % 1009,7 hPa 0,0 l/m 0 min 0 min 95 W/m 6,8 km/h (2 Bft) 97,87 %
10.06.2018 07:30 17,5 C 17,8 C 16,7 C 96 % 1009,7 hPa 0,0 l/m 0 min 0 min 94 W/m 9,0 km/h (2 Bft) 100,00 %
10.06.2018 07:32 17,5 C 17,8 C 16,7 C 96 % 1009,8 hPa 0,0 l/m 0 min 0 min 93 W/m 4,5 km/h (1 Bft) 100,00 %
10.06.2018 07:34 17,5 C 17,8 C 16,7 C 96 % 1009,8 hPa 0,0 l/m 0 min 0 min 93 W/m 4,5 km/h (1 Bft) 100,00 %
10.06.2018 07:36 17,5 C 17,8 C 16,7 C 96 % 1009,9 hPa 0,0 l/m 0 min 0 min 96 W/m 4,5 km/h (1 Bft) 100,00 %
10.06.2018 07:38 17,5 C 17,8 C 16,7 C 96 % 1009,9 hPa 0,0 l/m 0 min 0 min 98 W/m 4,5 km/h (1 Bft) 97,87 %
10.06.2018 07:40 17,5 C 17,8 C 16,7 C 96 % 1009,9 hPa 0,0 l/m 0 min 0 min 99 W/m 9,0 km/h (2 Bft) 100,00 %
10.06.2018 07:42 17,6 C 17,8 C 16,7 C 96 % 1009,9 hPa 0,0 l/m 0 min 0 min 110 W/m 9,0 km/h (2 Bft) 97,96 %
10.06.2018 07:44 17,6 C 18,3 C 17,2 C 96 % 1009,9 hPa 0,0 l/m 0 min 0 min 121 W/m 2,3 km/h (1 Bft) 95,74 %
10.06.2018 07:46 17,6 C 18,3 C 17,2 C 96 % 1009,9 hPa 0,0 l/m 0 min 0 min 136 W/m 0,0 km/h (0 Bft) 97,87 %
10.06.2018 07:48 17,6 C 18,3 C 17,2 C 96 % 1009,9 hPa 0,0 l/m 0 min 0 min 150 W/m 9,0 km/h (2 Bft) 97,87 %
10.06.2018 07:50 17,6 C 18,9 C 17,2 C 96 % 1009,8 hPa 0,0 l/m 0 min 0 min 154 W/m 2,3 km/h (1 Bft) 97,83 %
10.06.2018 07:52 17,7 C 18,9 C 17,2 C 96 % 1009,8 hPa 0,0 l/m 0 min 0 min 162 W/m 4,5 km/h (1 Bft) 97,14 %
10.06.2018 07:54 17,7 C 18,9 C 17,2 C 96 % 1009,8 hPa 0,0 l/m 0 min 0 min 170 W/m 4,5 km/h (1 Bft) 97,87 %
10.06.2018 07:56 17,7 C 18,9 C 17,2 C 96 % 1009,8 hPa 0,0 l/m 0 min 0 min 171 W/m 11,3 km/h (2 Bft) 97,87 %
10.06.2018 07:58 17,8 C 18,9 C 17,2 C 96 % 1009,9 hPa 0,0 l/m 0 min 0 min 174 W/m 9,0 km/h (2 Bft) 97,87 %
10.06.2018 08:00 17,8 C 19,4 C 17,2 C 96 % 1009,9 hPa 0,0 l/m 2 min 0 min 190 W/m 2,3 km/h (1 Bft) 97,87 %
10.06.2018 08:02 17,8 C 20,0 C 17,2 C 96 % 1009,9 hPa 0,0 l/m 2 min 0 min 199 W/m 4,5 km/h (1 Bft) 97,87 %
10.06.2018 08:04 17,9 C 20,0 C 17,2 C 96 % 1009,9 hPa 0,0 l/m 2 min 0 min 204 W/m 4,5 km/h (1 Bft) 97,83 %
10.06.2018 08:06 17,9 C 20,0 C 17,2 C 96 % 1010,0 hPa 0,0 l/m 2 min 0 min 214 W/m 4,5 km/h (1 Bft) 95,74 %
10.06.2018 08:08 18,0 C 20,0 C 17,2 C 96 % 1010,0 hPa 0,0 l/m 2 min 0 min 234 W/m 6,8 km/h (2 Bft) 95,74 %
10.06.2018 08:10 18,1 C 20,0 C 17,8 C 96 % 1010,0 hPa 0,0 l/m 2 min 0 min 243 W/m 4,5 km/h (1 Bft) 97,87 %
10.06.2018 08:12 18,1 C 20,0 C 17,8 C 96 % 1009,9 hPa 0,0 l/m 2 min 0 min 249 W/m 4,5 km/h (1 Bft) 95,74 %
10.06.2018 08:14 18,2 C 20,6 C 17,8 C 96 % 1009,9 hPa 0,0 l/m 2 min 0 min 258 W/m 4,5 km/h (1 Bft) 97,87 %
10.06.2018 08:16 18,2 C 20,6 C 17,8 C 96 % 1010,0 hPa 0,0 l/m 2 min 0 min 274 W/m 4,5 km/h (1 Bft) 97,83 %
10.06.2018 08:18 18,3 C 21,1 C 18,3 C 96 % 1010,0 hPa 0,0 l/m 2 min 0 min 295 W/m 6,8 km/h (2 Bft) 97,87 %
10.06.2018 08:20 18,4 C 21,1 C 18,3 C 96 % 1010,0 hPa 0,0 l/m 2 min 0 min 296 W/m 4,5 km/h (1 Bft) 95,74 %
10.06.2018 08:22 18,5 C 21,7 C 18,3 C 96 % 1010,0 hPa 0,0 l/m 2 min 0 min 301 W/m 0,0 km/h (0 Bft) 96,49 %
10.06.2018 08:24 18,6 C 21,1 C 18,3 C 96 % 1010,1 hPa 0,0 l/m 2 min 0 min 307 W/m 6,8 km/h (2 Bft) 97,87 %
10.06.2018 08:26 18,7 C 21,1 C 18,3 C 96 % 1010,1 hPa 0,0 l/m 2 min 0 min 275 W/m 6,8 km/h (2 Bft) 100,00 %
10.06.2018 08:28 18,7 C 20,6 C 18,3 C 96 % 1010,2 hPa 0,0 l/m 2 min 0 min 238 W/m 6,8 km/h (2 Bft) 100,00 %
10.06.2018 08:30 18,7 C 20,6 C 18,3 C 96 % 1010,2 hPa 0,0 l/m 2 min 0 min 225 W/m 6,8 km/h (2 Bft) 100,00 %
10.06.2018 08:32 18,8 C 20,6 C 18,3 C 96 % 1010,2 hPa 0,0 l/m 2 min 0 min 233 W/m 9,0 km/h (2 Bft) 100,00 %
10.06.2018 08:34 18,9 C 20,6 C 18,3 C 95 % 1010,1 hPa 0,0 l/m 2 min 0 min 229 W/m 9,0 km/h (2 Bft) 97,87 %
10.06.2018 08:36 18,9 C 20,6 C 18,3 C 95 % 1010,1 hPa 0,0 l/m 2 min 0 min 226 W/m 6,8 km/h (2 Bft) 100,00 %
10.06.2018 08:38 19,0 C 20,6 C 18,3 C 95 % 1010,1 hPa 0,0 l/m 0 min 0 min 177 W/m 4,5 km/h (1 Bft) 100,00 %
10.06.2018 08:40 19,1 C 20,6 C 18,3 C 95 % 1010,1 hPa 0,0 l/m 0 min 0 min 153 W/m 11,3 km/h (2 Bft) 100,00 %
10.06.2018 08:42 19,1 C 20,0 C 18,3 C 94 % 1010,1 hPa 0,0 l/m 0 min 0 min 135 W/m 2,3 km/h (1 Bft) 97,87 %
10.06.2018 08:44 19,1 C 20,0 C 18,3 C 94 % 1010,2 hPa 0,0 l/m 0 min 0 min 121 W/m 11,3 km/h (2 Bft) 100,00 %
10.06.2018 08:46 19,2 C 20,0 C 18,3 C 94 % 1010,2 hPa 0,0 l/m 0 min 0 min 113 W/m 9,0 km/h (2 Bft) 95,74 %
10.06.2018 08:48 19,2 C 19,4 C 18,3 C 93 % 1010,2 hPa 0,0 l/m 0 min 0 min 103 W/m 6,8 km/h (2 Bft) 95,74 %
10.06.2018 08:50 19,2 C 19,4 C 18,3 C 93 % 1010,3 hPa 0,0 l/m 0 min 0 min 104 W/m 6,8 km/h (2 Bft) 95,65 %
10.06.2018 08:52 19,2 C 19,4 C 18,3 C 93 % 1010,3 hPa 0,0 l/m 0 min 0 min 132 W/m 6,8 km/h (2 Bft) 97,87 %
10.06.2018 08:54 19,3 C 20,0 C 18,3 C 93 % 1010,3 hPa 0,0 l/m 0 min 0 min 147 W/m 4,5 km/h (1 Bft) 97,87 %
10.06.2018 08:56 19,3 C 20,0 C 18,3 C 93 % 1010,3 hPa 0,0 l/m 0 min 0 min 167 W/m 4,5 km/h (1 Bft) 97,87 %
10.06.2018 08:58 19,3 C 20,0 C 18,3 C 92 % 1010,3 hPa 0,0 l/m 0 min 0 min 170 W/m 6,8 km/h (2 Bft) 97,87 %
10.06.2018 09:00 19,4 C 20,0 C 18,3 C 92 % 1010,4 hPa 0,0 l/m 0 min 0 min 145 W/m 9,0 km/h (2 Bft) 95,74 %
10.06.2018 09:02 19,4 C 19,4 C 18,3 C 92 % 1010,4 hPa 0,0 l/m 0 min 0 min 139 W/m 4,5 km/h (1 Bft) 95,65 %
10.06.2018 09:04 19,4 C 19,4 C 17,8 C 92 % 1010,4 hPa 0,2 l/m 0 min 0 min 125 W/m 6,8 km/h (2 Bft) 97,87 %
10.06.2018 09:06 19,4 C 19,4 C 17,8 C 92 % 1010,4 hPa 0,0 l/m 0 min 0 min 100 W/m 9,0 km/h (2 Bft) 97,87 %
10.06.2018 09:08 19,3 C 19,4 C 17,8 C 92 % 1010,3 hPa 0,0 l/m 0 min 0 min 96 W/m 4,5 km/h (1 Bft) 97,87 %
10.06.2018 09:10 19,3 C 19,4 C 17,8 C 91 % 1010,3 hPa 0,0 l/m 0 min 0 min 117 W/m 11,3 km/h (2 Bft) 97,87 %
10.06.2018 09:12 19,3 C 19,4 C 17,8 C 91 % 1010,4 hPa 0,0 l/m 0 min 0 min 162 W/m 6,8 km/h (2 Bft) 97,87 %
10.06.2018 09:14 19,3 C 19,4 C 17,8 C 91 % 1010,4 hPa 0,0 l/m 0 min 0 min 190 W/m 9,0 km/h (2 Bft) 97,83 %
10.06.2018 09:16 19,3 C 19,4 C 17,8 C 91 % 1010,4 hPa 0,0 l/m 0 min 0 min 201 W/m 9,0 km/h (2 Bft) 97,87 %
10.06.2018 09:18 19,3 C 19,4 C 17,8 C 91 % 1010,3 hPa 0,0 l/m 0 min 0 min 192 W/m 13,5 km/h (3 Bft) 95,74 %
10.06.2018 09:20 19,3 C 19,4 C 17,8 C 91 % 1010,3 hPa 0,0 l/m 0 min 0 min 203 W/m 9,0 km/h (2 Bft) 95,74 %
10.06.2018 09:22 19,3 C 19,4 C 17,8 C 91 % 1010,3 hPa 0,0 l/m 0 min 0 min 226 W/m 9,0 km/h (2 Bft) 93,62 %
10.06.2018 09:24 19,3 C 20,0 C 17,8 C 91 % 1010,3 hPa 0,0 l/m 0 min 0 min 208 W/m 6,8 km/h (2 Bft) 95,74 %
10.06.2018 09:26 19,3 C 19,4 C 17,8 C 91 % 1010,4 hPa 0,0 l/m 0 min 0 min 155 W/m 9,0 km/h (2 Bft) 97,83 %
10.06.2018 09:28 19,3 C 19,4 C 17,8 C 91 % 1010,3 hPa 0,0 l/m 0 min 0 min 130 W/m 6,8 km/h (2 Bft) 97,87 %
10.06.2018 09:30 19,3 C 19,4 C 17,8 C 91 % 1010,3 hPa 0,0 l/m 0 min 0 min 168 W/m 9,0 km/h (2 Bft) 97,87 %
10.06.2018 09:32 19,3 C 19,4 C 17,8 C 91 % 1010,3 hPa 0,0 l/m 0 min 0 min 210 W/m 6,8 km/h (2 Bft) 93,62 %
10.06.2018 09:34 19,3 C 20,0 C 17,8 C 91 % 1010,2 hPa 0,0 l/m 0 min 0 min 216 W/m 6,8 km/h (2 Bft) 97,87 %
10.06.2018 09:36 19,3 C 20,0 C 17,8 C 91 % 1010,2 hPa 0,0 l/m 0 min 0 min 210 W/m 9,0 km/h (2 Bft) 93,62 %
10.06.2018 09:38 19,3 C 20,0 C 17,8 C 91 % 1010,2 hPa 0,0 l/m 0 min 0 min 197 W/m 11,3 km/h (2 Bft) 97,83 %
10.06.2018 09:40 19,2 C 20,0 C 17,8 C 91 % 1010,2 hPa 0,0 l/m 0 min 0 min 195 W/m 6,8 km/h (2 Bft) 95,74 %
10.06.2018 09:42 19,3 C 20,0 C 18,3 C 91 % 1010,2 hPa 0,0 l/m 0 min 0 min 194 W/m 9,0 km/h (2 Bft) 97,92 %
10.06.2018 09:44 19,3 C 20,0 C 17,8 C 91 % 1010,2 hPa 0,0 l/m 0 min 0 min 193 W/m 13,5 km/h (3 Bft) 93,62 %
10.06.2018 09:46 19,2 C 19,4 C 17,8 C 91 % 1010,3 hPa 0,0 l/m 0 min 0 min 181 W/m 11,3 km/h (2 Bft) 97,83 %
10.06.2018 09:48 19,2 C 19,4 C 17,8 C 91 % 1010,3 hPa 0,0 l/m 0 min 0 min 181 W/m 11,3 km/h (2 Bft) 97,87 %
10.06.2018 09:50 19,2 C 20,0 C 17,8 C 91 % 1010,2 hPa 0,0 l/m 0 min 0 min 199 W/m 6,8 km/h (2 Bft) 97,87 %
10.06.2018 09:52 19,3 C 20,0 C 17,8 C 91 % 1010,2 hPa 0,0 l/m 0 min 0 min 194 W/m 9,0 km/h (2 Bft) 97,14 %
10.06.2018 09:54 19,2 C 19,4 C 17,8 C 91 % 1010,3 hPa 0,0 l/m 0 min 0 min 157 W/m 15,8 km/h (3 Bft) 95,74 %
10.06.2018 09:56 19,3 C 19,4 C 17,8 C 91 % 1010,3 hPa 0,0 l/m 0 min 0 min 132 W/m 9,0 km/h (2 Bft) 97,87 %
10.06.2018 09:58 19,2 C 19,4 C 17,8 C 91 % 1010,3 hPa 0,0 l/m 0 min 0 min 123 W/m 9,0 km/h (2 Bft) 97,87 %
10.06.2018 10:00 19,2 C 18,9 C 17,8 C 91 % 1010,3 hPa 0,0 l/m 0 min 0 min 116 W/m 9,0 km/h (2 Bft) 95,74 %
10.06.2018 10:02 19,2 C 18,9 C 17,8 C 91 % 1010,3 hPa 0,0 l/m 0 min 0 min 126 W/m 9,0 km/h (2 Bft) 97,83 %
10.06.2018 10:04 19,2 C 18,9 C 17,8 C 91 % 1010,4 hPa 0,0 l/m 0 min 0 min 173 W/m 6,8 km/h (2 Bft) 97,87 %
10.06.2018 10:06 19,2 C 19,4 C 17,8 C 91 % 1010,4 hPa 0,0 l/m 0 min 0 min 237 W/m 9,0 km/h (2 Bft) 97,87 %
10.06.2018 10:08 19,2 C 20,0 C 17,8 C 91 % 1010,3 hPa 0,0 l/m 0 min 0 min 277 W/m 6,8 km/h (2 Bft) 97,87 %
10.06.2018 10:10 19,2 C 20,6 C 18,3 C 91 % 1010,4 hPa 0,0 l/m 0 min 0 min 295 W/m 6,8 km/h (2 Bft) 97,87 %
10.06.2018 10:12 19,2 C 20,6 C 18,3 C 91 % 1010,3 hPa 0,0 l/m 0 min 0 min 293 W/m 6,8 km/h (2 Bft) 95,74 %
10.06.2018 10:14 19,2 C 21,1 C 18,3 C 91 % 1010,3 hPa 0,0 l/m 0 min 0 min 292 W/m 4,5 km/h (1 Bft) 95,65 %
10.06.2018 10:16 19,3 C 21,7 C 18,3 C 92 % 1010,4 hPa 0,0 l/m 0 min 0 min 289 W/m 2,3 km/h (1 Bft) 97,87 %
10.06.2018 10:18 19,4 C 22,2 C 18,9 C 92 % 1010,4 hPa 0,0 l/m 0 min 0 min 309 W/m 6,8 km/h (2 Bft) 97,87 %
10.06.2018 10:20 19,4 C 22,2 C 18,9 C 92 % 1010,3 hPa 0,0 l/m 0 min 0 min 314 W/m 4,5 km/h (1 Bft) 95,74 %
10.06.2018 10:22 19,4 C 22,2 C 18,9 C 92 % 1010,3 hPa 0,0 l/m 0 min 0 min 318 W/m 6,8 km/h (2 Bft) 95,74 %
10.06.2018 10:24 19,6 C 22,8 C 18,9 C 91 % 1010,3 hPa 0,0 l/m 2 min 0 min 344 W/m 9,0 km/h (2 Bft) 95,65 %
10.06.2018 10:26 19,7 C 23,3 C 18,9 C 91 % 1010,2 hPa 0,0 l/m 2 min 0 min 342 W/m 6,8 km/h (2 Bft) 93,62 %
10.06.2018 10:28 19,7 C 23,3 C 18,9 C 92 % 1010,2 hPa 0,0 l/m 0 min 0 min 316 W/m 11,3 km/h (2 Bft) 95,74 %
10.06.2018 10:30 19,8 C 23,3 C 18,9 C 91 % 1010,3 hPa 0,0 l/m 0 min 0 min 321 W/m 11,3 km/h (2 Bft) 93,62 %
10.06.2018 10:32 19,8 C 22,8 C 18,9 C 91 % 1010,2 hPa 0,0 l/m 0 min 0 min 279 W/m 4,5 km/h (1 Bft) 97,87 %
10.06.2018 10:34 19,9 C 22,2 C 18,9 C 90 % 1010,2 hPa 0,0 l/m 0 min 0 min 236 W/m 9,0 km/h (2 Bft) 95,74 %
10.06.2018 10:36 20,0 C 22,2 C 18,9 C 90 % 1010,2 hPa 0,0 l/m 0 min 0 min 233 W/m 4,5 km/h (1 Bft) 98,11 %
10.06.2018 10:38 20,1 C 22,2 C 18,9 C 90 % 1010,1 hPa 0,0 l/m 0 min 0 min 217 W/m 6,8 km/h (2 Bft) 97,83 %
10.06.2018 10:40 20,1 C 22,2 C 18,9 C 90 % 1010,1 hPa 0,0 l/m 0 min 0 min 225 W/m 9,0 km/h (2 Bft) 97,96 %
10.06.2018 10:42 20,2 C 22,8 C 18,9 C 90 % 1010,1 hPa 0,0 l/m 0 min 0 min 250 W/m 6,8 km/h (2 Bft) 97,87 %
10.06.2018 10:44 20,2 C 22,8 C 19,4 C 90 % 1010,1 hPa 0,0 l/m 0 min 0 min 253 W/m 4,5 km/h (1 Bft) 97,87 %
10.06.2018 10:46 20,3 C 23,3 C 19,4 C 90 % 1010,1 hPa 0,0 l/m 0 min 0 min 247 W/m 9,0 km/h (2 Bft) 95,74 %
10.06.2018 10:48 20,4 C 23,3 C 19,4 C 90 % 1010,2 hPa 0,0 l/m 0 min 0 min 251 W/m 2,3 km/h (1 Bft) 97,87 %
10.06.2018 10:50 20,5 C 23,9 C 19,4 C 90 % 1010,2 hPa 0,0 l/m 0 min 0 min 256 W/m 2,3 km/h (1 Bft) 97,83 %
10.06.2018 10:52 20,6 C 25,0 C 20,0 C 89 % 1010,2 hPa 0,0 l/m 0 min 0 min 257 W/m 6,8 km/h (2 Bft) 97,87 %
10.06.2018 10:54 20,7 C 25,0 C 20,0 C 89 % 1010,1 hPa 0,0 l/m 0 min 0 min 265 W/m 4,5 km/h (1 Bft) 97,87 %
10.06.2018 10:56 20,8 C 25,0 C 20,0 C 89 % 1010,1 hPa 0,0 l/m 0 min 0 min 295 W/m 9,0 km/h (2 Bft) 95,74 %
10.06.2018 10:58 20,9 C 26,1 C 20,0 C 89 % 1010,1 hPa 0,0 l/m 0 min 0 min 298 W/m 2,3 km/h (1 Bft) 95,74 %
10.06.2018 11:00 21,0 C 26,7 C 20,0 C 88 % 1010,2 hPa 0,0 l/m 0 min 0 min 274 W/m 4,5 km/h (1 Bft) 97,83 %
10.06.2018 11:02 21,1 C 26,7 C 20,0 C 88 % 1010,1 hPa 0,0 l/m 0 min 0 min 284 W/m 2,3 km/h (1 Bft) 97,87 %
10.06.2018 11:04 21,2 C 25,6 C 20,0 C 88 % 1010,1 hPa 0,0 l/m 0 min 0 min 270 W/m 6,8 km/h (2 Bft) 100,00 %
10.06.2018 11:06 21,3 C 25,6 C 20,0 C 87 % 1010,1 hPa 0,0 l/m 2 min 0 min 484 W/m 9,0 km/h (2 Bft) 97,87 %
10.06.2018 11:08 21,4 C 25,6 C 20,0 C 87 % 1010,2 hPa 0,0 l/m 2 min 0 min 411 W/m 9,0 km/h (2 Bft) 100,00 %
10.06.2018 11:10 21,5 C 26,1 C 20,0 C 87 % 1010,2 hPa 0,0 l/m 0 min 0 min 338 W/m 4,5 km/h (1 Bft) 97,87 %
10.06.2018 11:12 21,6 C 26,1 C 20,6 C 87 % 1010,2 hPa 0,0 l/m 0 min 0 min 343 W/m 13,5 km/h (3 Bft) 97,83 %
10.06.2018 11:14 21,7 C 26,7 C 20,6 C 86 % 1010,2 hPa 0,0 l/m 0 min 0 min 274 W/m 9,0 km/h (2 Bft) 97,87 %
10.06.2018 11:16 21,8 C 26,7 C 20,6 C 86 % 1010,2 hPa 0,0 l/m 0 min 0 min 323 W/m 9,0 km/h (2 Bft) 100,00 %
10.06.2018 11:18 22,0 C 26,7 C 20,6 C 85 % 1010,2 hPa 0,0 l/m 0 min 0 min 285 W/m 13,5 km/h (3 Bft) 100,00 %
10.06.2018 11:20 22,1 C 27,8 C 20,6 C 85 % 1010,3 hPa 0,0 l/m 0 min 0 min 319 W/m 11,3 km/h (2 Bft) 97,92 %
10.06.2018 11:22 22,1 C 27,8 C 20,0 C 84 % 1010,3 hPa 0,0 l/m 2 min 0 min 413 W/m 6,8 km/h (2 Bft) 100,00 %
10.06.2018 11:24 22,2 C 28,3 C 20,6 C 84 % 1010,2 hPa 0,0 l/m 2 min 0 min 413 W/m 4,5 km/h (1 Bft) 100,00 %
10.06.2018 11:26 22,3 C 26,7 C 20,6 C 83 % 1010,3 hPa 0,0 l/m 2 min 0 min 390 W/m 11,3 km/h (2 Bft) 100,00 %
10.06.2018 11:28 22,3 C 26,7 C 20,6 C 83 % 1010,2 hPa 0,0 l/m 0 min 0 min 278 W/m 9,0 km/h (2 Bft) 100,00 %
10.06.2018 11:30 22,4 C 27,8 C 20,6 C 83 % 1010,3 hPa 0,0 l/m 2 min 0 min 642 W/m 9,0 km/h (2 Bft) 100,00 %
10.06.2018 11:32 22,5 C 28,9 C 20,6 C 83 % 1010,3 hPa 0,0 l/m 2 min 0 min 671 W/m 9,0 km/h (2 Bft) 100,00 %
10.06.2018 11:34 22,6 C 28,9 C 20,6 C 83 % 1010,3 hPa 0,0 l/m 2 min 0 min 652 W/m 9,0 km/h (2 Bft) 100,00 %
10.06.2018 11:36 22,7 C 28,3 C 20,6 C 82 % 1010,3 hPa 0,0 l/m 2 min 0 min 661 W/m 6,8 km/h (2 Bft) 97,83 %
10.06.2018 11:38 22,7 C 28,9 C 20,6 C 82 % 1010,3 hPa 0,0 l/m 2 min 0 min 583 W/m 6,8 km/h (2 Bft) 100,00 %
10.06.2018 11:40 22,8 C 28,9 C 20,6 C 83 % 1010,3 hPa 0,0 l/m 2 min 0 min 578 W/m 6,8 km/h (2 Bft) 100,00 %
10.06.2018 11:42 22,9 C 29,4 C 21,1 C 83 % 1010,2 hPa 0,0 l/m 2 min 0 min 724 W/m 6,8 km/h (2 Bft) 100,00 %
10.06.2018 11:44 23,0 C 30,0 C 21,1 C 82 % 1010,2 hPa 0,0 l/m 2 min 0 min 755 W/m 4,5 km/h (1 Bft) 100,00 %
10.06.2018 11:46 23,1 C 27,8 C 21,1 C 81 % 1010,2 hPa 0,0 l/m 2 min 0 min 591 W/m 6,8 km/h (2 Bft) 100,00 %
10.06.2018 11:48 23,2 C 27,2 C 21,1 C 81 % 1010,2 hPa 0,0 l/m 0 min 0 min 292 W/m 6,8 km/h (2 Bft) 100,00 %
10.06.2018 11:50 23,2 C 28,3 C 21,1 C 81 % 1010,2 hPa 0,0 l/m 2 min 0 min 575 W/m 9,0 km/h (2 Bft) 100,00 %
10.06.2018 11:52 23,3 C 29,4 C 21,1 C 81 % 1010,1 hPa 0,0 l/m 2 min 0 min 751 W/m 6,8 km/h (2 Bft) 100,00 %
10.06.2018 11:54 23,4 C 30,0 C 21,1 C 81 % 1010,2 hPa 0,0 l/m 2 min 0 min 735 W/m 0,0 km/h (0 Bft) 100,00 %
10.06.2018 11:56 23,5 C 30,0 C 21,1 C 81 % 1010,2 hPa 0,0 l/m 2 min 0 min 719 W/m 9,0 km/h (2 Bft) 100,00 %
10.06.2018 11:58 23,6 C 28,9 C 21,1 C 80 % 1010,2 hPa 0,0 l/m 2 min 0 min 765 W/m 4,5 km/h (1 Bft) 97,83 %
10.06.2018 12:00 23,6 C 28,9 C 21,1 C 80 % 1010,2 hPa 0,0 l/m 2 min 0 min 782 W/m 6,8 km/h (2 Bft) 97,87 %
10.06.2018 12:02 23,7 C 27,8 C 21,1 C 79 % 1010,2 hPa 0,0 l/m 2 min 0 min 670 W/m 9,0 km/h (2 Bft) 93,62 %
10.06.2018 12:04 23,7 C 26,7 C 21,1 C 79 % 1010,2 hPa 0,0 l/m 0 min 0 min 306 W/m 6,8 km/h (2 Bft) 97,87 %
10.06.2018 12:08 23,8 C 27,8 C 21,1 C 79 % 1010,2 hPa 0,0 l/m 4 min 0 min 478 W/m 9,0 km/h (2 Bft) 97,62 %
10.06.2018 12:10 23,8 C 28,9 C 21,7 C 79 % 1010,1 hPa 0,0 l/m 2 min 0 min 812 W/m 4,5 km/h (1 Bft) 97,83 %
10.06.2018 12:12 23,8 C 30,0 C 21,7 C 79 % 1010,1 hPa 0,0 l/m 2 min 0 min 788 W/m 11,3 km/h (2 Bft) 97,87 %
10.06.2018 12:14 23,9 C 30,6 C 21,7 C 79 % 1010,3 hPa 0,0 l/m 2 min 0 min 835 W/m 9,0 km/h (2 Bft) 97,87 %
10.06.2018 12:16 24,0 C 30,0 C 21,7 C 78 % 1010,2 hPa 0,0 l/m 2 min 0 min 830 W/m 4,5 km/h (1 Bft) 97,87 %
10.06.2018 12:18 24,0 C 28,9 C 21,7 C 78 % 1010,2 hPa 0,0 l/m 2 min 0 min 781 W/m 4,5 km/h (1 Bft) 97,87 %
10.06.2018 12:20 24,1 C 28,3 C 21,7 C 78 % 1010,2 hPa 0,0 l/m 0 min 0 min 360 W/m 9,0 km/h (2 Bft) 94,83 %
10.06.2018 12:22 24,1 C 27,8 C 21,7 C 78 % 1010,2 hPa 0,0 l/m 0 min 0 min 382 W/m 6,8 km/h (2 Bft) 97,87 %
10.06.2018 12:24 24,1 C 27,8 C 21,7 C 78 % 1010,2 hPa 0,0 l/m 2 min 0 min 618 W/m 2,3 km/h (1 Bft) 97,14 %
10.06.2018 12:26 24,2 C 27,2 C 21,7 C 79 % 1010,2 hPa 0,0 l/m 2 min 0 min 446 W/m 6,8 km/h (2 Bft) 95,74 %
10.06.2018 12:28 24,2 C 28,3 C 21,7 C 78 % 1010,2 hPa 0,0 l/m 0 min 0 min 333 W/m 4,5 km/h (1 Bft) 95,74 %
10.06.2018 12:30 24,2 C 28,3 C 21,7 C 78 % 1010,3 hPa 0,0 l/m 2 min 0 min 836 W/m 9,0 km/h (2 Bft) 97,87 %
10.06.2018 12:32 24,2 C 27,2 C 21,7 C 77 % 1010,3 hPa 0,0 l/m 2 min 0 min 701 W/m 6,8 km/h (2 Bft) 97,87 %
10.06.2018 12:34 24,2 C 28,3 C 21,7 C 77 % 1010,2 hPa 0,0 l/m 2 min 0 min 417 W/m 4,5 km/h (1 Bft) 97,83 %
10.06.2018 12:36 24,2 C 29,4 C 22,2 C 78 % 1010,2 hPa 0,0 l/m 2 min 0 min 860 W/m 4,5 km/h (1 Bft) 97,87 %
10.06.2018 12:38 24,3 C 29,4 C 22,2 C 78 % 1010,2 hPa 0,0 l/m 2 min 0 min 860 W/m 6,8 km/h (2 Bft) 97,87 %
10.06.2018 12:40 24,3 C 28,3 C 21,7 C 79 % 1010,3 hPa 0,0 l/m 0 min 0 min 395 W/m 11,3 km/h (2 Bft) 97,87 %
10.06.2018 12:42 24,3 C 27,2 C 21,7 C 77 % 1010,3 hPa 0,0 l/m 0 min 0 min 336 W/m 11,3 km/h (2 Bft) 97,87 %
10.06.2018 12:44 24,4 C 27,8 C 21,7 C 77 % 1010,3 hPa 0,0 l/m 2 min 0 min 532 W/m 6,8 km/h (2 Bft) 97,87 %
10.06.2018 12:46 24,4 C 28,3 C 21,7 C 77 % 1010,2 hPa 0,0 l/m 2 min 0 min 831 W/m 2,3 km/h (1 Bft) 95,65 %
10.06.2018 12:48 24,4 C 30,0 C 22,2 C 77 % 1010,3 hPa 0,0 l/m 2 min 0 min 485 W/m 4,5 km/h (1 Bft) 96,30 %
10.06.2018 12:50 24,6 C 29,4 C 22,2 C 77 % 1010,2 hPa 0,0 l/m 2 min 0 min 772 W/m 6,8 km/h (2 Bft) 97,87 %
10.06.2018 12:52 24,6 C 27,8 C 22,2 C 76 % 1010,2 hPa 0,0 l/m 0 min 0 min 385 W/m 9,0 km/h (2 Bft) 100,00 %
10.06.2018 12:54 24,6 C 26,7 C 22,2 C 75 % 1010,3 hPa 0,0 l/m 0 min 0 min 397 W/m 6,8 km/h (2 Bft) 93,62 %
10.06.2018 12:56 24,6 C 26,7 C 21,7 C 75 % 1010,2 hPa 0,0 l/m 0 min 0 min 383 W/m 6,8 km/h (2 Bft) 93,62 %
10.06.2018 12:58 24,6 C 26,1 C 21,7 C 74 % 1010,2 hPa 0,0 l/m 0 min 0 min 297 W/m 6,8 km/h (2 Bft) 95,65 %
10.06.2018 13:00 24,6 C 25,6 C 21,7 C 75 % 1010,2 hPa 0,0 l/m 0 min 0 min 250 W/m 2,3 km/h (1 Bft) 95,74 %
10.06.2018 13:02 24,6 C 25,0 C 21,7 C 75 % 1010,2 hPa 0,0 l/m 0 min 0 min 267 W/m 6,8 km/h (2 Bft) 95,74 %
10.06.2018 13:04 24,5 C 25,0 C 21,7 C 75 % 1010,2 hPa 0,0 l/m 0 min 0 min 294 W/m 4,5 km/h (1 Bft) 95,74 %
10.06.2018 13:06 24,5 C 26,1 C 21,7 C 75 % 1010,1 hPa 0,0 l/m 0 min 0 min 276 W/m 4,5 km/h (1 Bft) 95,74 %
10.06.2018 13:08 24,4 C 27,2 C 22,2 C 76 % 1010,1 hPa 0,0 l/m 0 min 0 min 281 W/m 6,8 km/h (2 Bft) 91,49 %
10.06.2018 13:10 24,4 C 28,9 C 22,2 C 76 % 1010,1 hPa 0,0 l/m 2 min 0 min 804 W/m 9,0 km/h (2 Bft) 95,65 %
10.06.2018 13:12 24,4 C 29,4 C 22,2 C 76 % 1010,1 hPa 0,0 l/m 2 min 0 min 837 W/m 4,5 km/h (1 Bft) 95,74 %
10.06.2018 13:14 24,5 C 30,6 C 22,8 C 76 % 1010,1 hPa 0,0 l/m 2 min 0 min 835 W/m 4,5 km/h (1 Bft) 95,74 %
10.06.2018 13:16 24,6 C 28,9 C 22,8 C 77 % 1010,1 hPa 0,0 l/m 2 min 0 min 565 W/m 4,5 km/h (1 Bft) 93,62 %
10.06.2018 13:18 24,6 C 28,3 C 22,8 C 76 % 1010,2 hPa 0,0 l/m 0 min 0 min 331 W/m 6,8 km/h (2 Bft) 95,74 %
10.06.2018 13:20 24,6 C 27,2 C 22,2 C 76 % 1010,1 hPa 0,0 l/m 0 min 0 min 316 W/m 11,3 km/h (2 Bft) 95,74 %
10.06.2018 13:22 24,6 C 26,7 C 22,2 C 76 % 1010,2 hPa 0,0 l/m 0 min 0 min 289 W/m 9,0 km/h (2 Bft) 95,65 %
10.06.2018 13:24 24,6 C 26,1 C 22,2 C 75 % 1010,2 hPa 0,0 l/m 0 min 0 min 290 W/m 9,0 km/h (2 Bft) 95,74 %
10.06.2018 13:26 24,6 C 25,6 C 22,2 C 75 % 1010,2 hPa 0,0 l/m 0 min 0 min 320 W/m 6,8 km/h (2 Bft) 93,62 %
10.06.2018 13:28 24,6 C 27,2 C 22,8 C 75 % 1010,2 hPa 0,0 l/m 0 min 0 min 404 W/m 4,5 km/h (1 Bft) 95,74 %
10.06.2018 13:30 24,6 C 28,9 C 22,8 C 75 % 1010,2 hPa 0,0 l/m 2 min 0 min 462 W/m 4,5 km/h (1 Bft) 95,74 %
10.06.2018 13:32 24,7 C 29,4 C 22,8 C 76 % 1010,1 hPa 0,0 l/m 2 min 0 min 534 W/m 15,8 km/h (3 Bft) 93,62 %
10.06.2018 13:34 24,7 C 29,4 C 23,3 C 76 % 1010,1 hPa 0,0 l/m 0 min 0 min 404 W/m 6,8 km/h (2 Bft) 95,65 %
10.06.2018 13:36 24,8 C 28,9 C 23,3 C 76 % 1010,2 hPa 0,0 l/m 0 min 0 min 395 W/m 11,3 km/h (2 Bft) 97,87 %
10.06.2018 13:38 24,8 C 27,8 C 23,3 C 75 % 1010,2 hPa 0,0 l/m 0 min 0 min 390 W/m 13,5 km/h (3 Bft) 95,74 %
10.06.2018 13:40 24,8 C 27,2 C 22,8 C 75 % 1010,1 hPa 0,0 l/m 0 min 0 min 376 W/m 6,8 km/h (2 Bft) 97,87 %
10.06.2018 13:42 24,9 C 27,8 C 22,8 C 75 % 1010,2 hPa 0,0 l/m 0 min 0 min 378 W/m 6,8 km/h (2 Bft) 97,87 %
10.06.2018 13:44 24,9 C 27,2 C 23,3 C 75 % 1010,1 hPa 0,0 l/m 0 min 0 min 365 W/m 6,8 km/h (2 Bft) 97,83 %
10.06.2018 13:46 24,9 C 27,2 C 23,3 C 74 % 1010,1 hPa 0,0 l/m 0 min 0 min 363 W/m 11,3 km/h (2 Bft) 97,87 %
10.06.2018 13:48 24,9 C 27,2 C 23,3 C 74 % 1010,1 hPa 0,0 l/m 0 min 0 min 354 W/m 11,3 km/h (2 Bft) 95,74 %
10.06.2018 13:50 25,0 C 27,2 C 22,8 C 74 % 1010,1 hPa 0,0 l/m 0 min 0 min 353 W/m 11,3 km/h (2 Bft) 97,87 %
10.06.2018 13:52 25,0 C 27,2 C 23,3 C 74 % 1010,1 hPa 0,0 l/m 0 min 0 min 342 W/m 6,8 km/h (2 Bft) 97,92 %
10.06.2018 13:54 25,1 C 27,2 C 23,3 C 75 % 1010,2 hPa 0,0 l/m 0 min 0 min 354 W/m 11,3 km/h (2 Bft) 97,87 %
10.06.2018 13:56 25,1 C 27,2 C 23,3 C 75 % 1010,1 hPa 0,0 l/m 0 min 0 min 371 W/m 9,0 km/h (2 Bft) 97,83 %
10.06.2018 13:58 25,1 C 27,2 C 23,3 C 74 % 1010,2 hPa 0,0 l/m 0 min 0 min 370 W/m 11,3 km/h (2 Bft) 100,00 %
10.06.2018 14:00 25,1 C 27,2 C 23,3 C 74 % 1010,2 hPa 0,0 l/m 0 min 0 min 372 W/m 11,3 km/h (2 Bft) 100,00 %
10.06.2018 14:02 25,1 C 27,2 C 23,3 C 74 % 1010,1 hPa 0,0 l/m 0 min 0 min 377 W/m 11,3 km/h (2 Bft) 100,00 %
10.06.2018 14:04 25,1 C 26,7 C 23,3 C 73 % 1010,1 hPa 0,0 l/m 0 min 0 min 383 W/m 6,8 km/h (2 Bft) 100,00 %
10.06.2018 14:06 25,2 C 27,2 C 23,3 C 73 % 1010,1 hPa 0,0 l/m 0 min 0 min 363 W/m 4,5 km/h (1 Bft) 100,00 %
10.06.2018 14:08 25,2 C 26,7 C 23,3 C 74 % 1010,2 hPa 0,0 l/m 0 min 0 min 362 W/m 9,0 km/h (2 Bft) 100,00 %
10.06.2018 14:10 25,3 C 27,2 C 23,3 C 74 % 1010,2 hPa 0,0 l/m 0 min 0 min 372 W/m 4,5 km/h (1 Bft) 100,00 %
10.06.2018 14:12 25,3 C 27,2 C 23,3 C 74 % 1010,2 hPa 0,0 l/m 0 min 0 min 385 W/m 11,3 km/h (2 Bft) 100,00 %
10.06.2018 14:14 25,3 C 26,7 C 23,3 C 72 % 1010,2 hPa 0,0 l/m 0 min 0 min 380 W/m 9,0 km/h (2 Bft) 100,00 %
10.06.2018 14:16 25,3 C 26,7 C 23,3 C 72 % 1010,2 hPa 0,0 l/m 0 min 0 min 386 W/m 13,5 km/h (3 Bft) 95,74 %
10.06.2018 14:18 25,3 C 27,2 C 23,3 C 73 % 1010,1 hPa 0,0 l/m 0 min 0 min 412 W/m 11,3 km/h (2 Bft) 97,87 %
10.06.2018 14:20 25,3 C 27,2 C 23,3 C 73 % 1010,1 hPa 0,0 l/m 0 min 0 min 377 W/m 11,3 km/h (2 Bft) 100,00 %
10.06.2018 14:22 25,3 C 27,2 C 23,3 C 72 % 1010,0 hPa 0,0 l/m 0 min 0 min 354 W/m 11,3 km/h (2 Bft) 100,00 %
10.06.2018 14:24 25,3 C 26,7 C 23,3 C 71 % 1010,0 hPa 0,0 l/m 0 min 0 min 341 W/m 11,3 km/h (2 Bft) 100,00 %
10.06.2018 14:26 25,3 C 26,7 C 23,3 C 70 % 1010,1 hPa 0,0 l/m 0 min 0 min 322 W/m 13,5 km/h (3 Bft) 97,87 %
10.06.2018 14:28 25,3 C 26,7 C 23,3 C 71 % 1010,0 hPa 0,0 l/m 0 min 0 min 294 W/m 9,0 km/h (2 Bft) 100,00 %
10.06.2018 14:30 25,3 C 26,1 C 23,3 C 70 % 1010,0 hPa 0,0 l/m 0 min 0 min 282 W/m 13,5 km/h (3 Bft) 100,00 %
10.06.2018 14:32 25,3 C 26,7 C 23,3 C 71 % 1009,9 hPa 0,0 l/m 0 min 0 min 283 W/m 9,0 km/h (2 Bft) 100,00 %
10.06.2018 14:34 25,3 C 26,7 C 23,3 C 71 % 1010,0 hPa 0,0 l/m 0 min 0 min 282 W/m 11,3 km/h (2 Bft) 100,00 %
10.06.2018 14:36 25,3 C 26,7 C 23,3 C 71 % 1010,0 hPa 0,0 l/m 0 min 0 min 290 W/m 13,5 km/h (3 Bft) 100,00 %
10.06.2018 14:38 25,4 C 26,7 C 23,3 C 71 % 1010,0 hPa 0,0 l/m 0 min 0 min 311 W/m 11,3 km/h (2 Bft) 100,00 %
10.06.2018 14:40 25,4 C 26,7 C 23,3 C 71 % 1010,0 hPa 0,0 l/m 0 min 0 min 316 W/m 9,0 km/h (2 Bft) 100,00 %
10.06.2018 14:42 25,4 C 26,7 C 23,3 C 71 % 1010,0 hPa 0,0 l/m 0 min 0 min 320 W/m 11,3 km/h (2 Bft) 100,00 %
10.06.2018 14:44 25,4 C 27,2 C 23,3 C 70 % 1010,0 hPa 0,0 l/m 0 min 0 min 322 W/m 9,0 km/h (2 Bft) 97,87 %
10.06.2018 14:46 25,4 C 26,7 C 23,3 C 70 % 1010,0 hPa 0,0 l/m 0 min 0 min 325 W/m 13,5 km/h (3 Bft) 100,00 %
10.06.2018 14:48 25,4 C 26,7 C 23,3 C 70 % 1009,9 hPa 0,0 l/m 0 min 0 min 334 W/m 15,8 km/h (3 Bft) 100,00 %
10.06.2018 14:50 25,4 C 26,1 C 23,3 C 69 % 1010,0 hPa 0,0 l/m 0 min 0 min 390 W/m 13,5 km/h (3 Bft) 97,87 %
10.06.2018 14:52 25,4 C 26,7 C 22,8 C 69 % 1010,0 hPa 0,0 l/m 2 min 0 min 447 W/m 6,8 km/h (2 Bft) 100,00 %
10.06.2018 14:54 25,5 C 26,7 C 23,3 C 69 % 1010,1 hPa 0,0 l/m 0 min 0 min 359 W/m 6,8 km/h (2 Bft) 100,00 %
10.06.2018 14:56 25,5 C 26,7 C 23,3 C 69 % 1010,0 hPa 0,0 l/m 2 min 0 min 408 W/m 4,5 km/h (1 Bft) 97,87 %
10.06.2018 14:58 25,5 C 26,7 C 23,3 C 69 % 1010,0 hPa 0,0 l/m 2 min 0 min 507 W/m 4,5 km/h (1 Bft) 97,87 %
10.06.2018 15:00 25,5 C 26,7 C 23,3 C 68 % 1009,9 hPa 0,0 l/m 2 min 0 min 692 W/m 4,5 km/h (1 Bft) 100,00 %
10.06.2018 15:02 25,5 C 26,7 C 23,3 C 68 % 1009,9 hPa 0,0 l/m 2 min 0 min 451 W/m 15,8 km/h (3 Bft) 97,92 %
10.06.2018 15:04 25,6 C 26,7 C 23,3 C 69 % 1010,0 hPa 0,0 l/m 2 min 0 min 454 W/m 11,3 km/h (2 Bft) 97,87 %
10.06.2018 15:06 25,6 C 26,7 C 23,3 C 68 % 1009,9 hPa 0,0 l/m 2 min 0 min 454 W/m 11,3 km/h (2 Bft) 97,83 %
10.06.2018 15:08 25,5 C 26,1 C 23,3 C 66 % 1009,9 hPa 0,0 l/m 2 min 0 min 449 W/m 11,3 km/h (2 Bft) 95,74 %
10.06.2018 15:10 25,5 C 26,1 C 23,3 C 65 % 1009,9 hPa 0,0 l/m 0 min 0 min 371 W/m 6,8 km/h (2 Bft) 97,87 %
10.06.2018 15:12 25,5 C 26,1 C 22,8 C 67 % 1009,9 hPa 0,0 l/m 0 min 0 min 352 W/m 6,8 km/h (2 Bft) 97,87 %
10.06.2018 15:14 25,5 C 26,1 C 23,3 C 67 % 1009,9 hPa 0,0 l/m 2 min 0 min 543 W/m 9,0 km/h (2 Bft) 97,87 %
10.06.2018 15:16 25,5 C 26,1 C 23,3 C 68 % 1009,8 hPa 0,0 l/m 2 min 0 min 436 W/m 15,8 km/h (3 Bft) 97,87 %
10.06.2018 15:18 25,6 C 26,7 C 23,3 C 69 % 1009,8 hPa 0,0 l/m 2 min 0 min 687 W/m 13,5 km/h (3 Bft) 97,83 %
10.06.2018 15:20 25,6 C 26,1 C 23,3 C 69 % 1009,9 hPa 0,0 l/m 2 min 0 min 816 W/m 11,3 km/h (2 Bft) 97,87 %
10.06.2018 15:22 25,6 C 26,1 C 23,3 C 68 % 1009,8 hPa 0,0 l/m 2 min 0 min 817 W/m 15,8 km/h (3 Bft) 97,87 %
10.06.2018 15:24 25,6 C 26,1 C 23,3 C 68 % 1009,8 hPa 0,0 l/m 2 min 0 min 782 W/m 13,5 km/h (3 Bft) 97,87 %
10.06.2018 15:26 25,6 C 26,7 C 23,3 C 68 % 1009,8 hPa 0,0 l/m 2 min 0 min 788 W/m 13,5 km/h (3 Bft) 97,87 %
10.06.2018 15:28 25,7 C 26,7 C 23,3 C 67 % 1009,7 hPa 0,0 l/m 2 min 0 min 767 W/m 9,0 km/h (2 Bft) 95,74 %
10.06.2018 15:30 25,7 C 26,7 C 23,3 C 67 % 1009,7 hPa 0,0 l/m 2 min 0 min 736 W/m 6,8 km/h (2 Bft) 95,65 %
10.06.2018 15:32 25,7 C 26,7 C 23,3 C 68 % 1009,6 hPa 0,0 l/m 2 min 0 min 744 W/m 11,3 km/h (2 Bft) 93,62 %
10.06.2018 15:34 25,7 C 26,7 C 23,3 C 68 % 1009,7 hPa 0,0 l/m 2 min 0 min 744 W/m 13,5 km/h (3 Bft) 95,83 %
10.06.2018 15:38 25,8 C 26,7 C 23,3 C 67 % 1009,8 hPa 0,0 l/m 4 min 0 min 621 W/m 13,5 km/h (3 Bft) 95,70 %
10.06.2018 15:40 25,8 C 26,7 C 23,3 C 67 % 1009,7 hPa 0,0 l/m 2 min 0 min 669 W/m 13,5 km/h (3 Bft) 95,74 %
10.06.2018 15:42 25,8 C 26,7 C 23,3 C 67 % 1009,6 hPa 0,0 l/m 2 min 0 min 765 W/m 13,5 km/h (3 Bft) 93,62 %
10.06.2018 15:44 25,8 C 26,7 C 23,3 C 66 % 1009,7 hPa 0,0 l/m 2 min 0 min 778 W/m 11,3 km/h (2 Bft) 93,62 %
10.06.2018 15:46 25,8 C 26,7 C 23,3 C 67 % 1009,7 hPa 0,0 l/m 2 min 0 min 780 W/m 6,8 km/h (2 Bft) 95,74 %
10.06.2018 15:48 25,8 C 27,2 C 23,3 C 67 % 1009,7 hPa 0,0 l/m 2 min 0 min 784 W/m 11,3 km/h (2 Bft) 93,62 %
10.06.2018 15:50 25,8 C 27,2 C 23,3 C 67 % 1009,7 hPa 0,0 l/m 2 min 0 min 778 W/m 9,0 km/h (2 Bft) 93,48 %
10.06.2018 15:52 25,9 C 28,3 C 23,3 C 68 % 1009,7 hPa 0,0 l/m 2 min 0 min 751 W/m 11,3 km/h (2 Bft) 95,74 %
10.06.2018 15:54 25,9 C 28,9 C 23,9 C 69 % 1009,7 hPa 0,0 l/m 2 min 0 min 797 W/m 15,8 km/h (3 Bft) 97,14 %
10.06.2018 15:56 26,0 C 29,4 C 23,9 C 69 % 1009,7 hPa 0,0 l/m 2 min 0 min 788 W/m 11,3 km/h (2 Bft) 91,49 %
10.06.2018 15:58 26,0 C 29,4 C 23,9 C 68 % 1009,7 hPa 0,0 l/m 2 min 0 min 766 W/m 6,8 km/h (2 Bft) 95,74 %
10.06.2018 16:00 26,1 C 30,0 C 23,9 C 68 % 1009,7 hPa 0,0 l/m 2 min 0 min 797 W/m 11,3 km/h (2 Bft) 93,62 %
10.06.2018 16:02 26,1 C 30,0 C 23,9 C 68 % 1009,7 hPa 0,0 l/m 2 min 0 min 815 W/m 11,3 km/h (2 Bft) 95,74 %
10.06.2018 16:04 26,2 C 30,0 C 23,9 C 69 % 1009,7 hPa 0,0 l/m 2 min 0 min 797 W/m 13,5 km/h (3 Bft) 95,74 %
10.06.2018 16:06 26,2 C 28,9 C 23,9 C 68 % 1009,7 hPa 0,0 l/m 2 min 0 min 775 W/m 15,8 km/h (3 Bft) 97,83 %
10.06.2018 16:08 26,3 C 29,4 C 23,9 C 69 % 1009,7 hPa 0,0 l/m 2 min 0 min 789 W/m 6,8 km/h (2 Bft) 95,74 %
10.06.2018 16:10 26,3 C 28,9 C 23,9 C 67 % 1009,7 hPa 0,0 l/m 2 min 0 min 757 W/m 9,0 km/h (2 Bft) 95,74 %
10.06.2018 16:12 26,3 C 29,4 C 23,9 C 68 % 1009,7 hPa 0,0 l/m 2 min 0 min 767 W/m 13,5 km/h (3 Bft) 95,74 %
10.06.2018 16:14 26,4 C 29,4 C 23,9 C 67 % 1009,7 hPa 0,0 l/m 2 min 0 min 679 W/m 9,0 km/h (2 Bft) 95,74 %
10.06.2018 16:16 26,4 C 29,4 C 23,9 C 68 % 1009,7 hPa 0,0 l/m 2 min 0 min 640 W/m 9,0 km/h (2 Bft) 100,00 %
10.06.2018 16:18 26,4 C 29,4 C 23,9 C 67 % 1009,7 hPa 0,0 l/m 2 min 0 min 649 W/m 13,5 km/h (3 Bft) 93,62 %
10.06.2018 16:20 26,5 C 29,4 C 23,9 C 67 % 1009,7 hPa 0,0 l/m 2 min 0 min 686 W/m 15,8 km/h (3 Bft) 95,74 %
10.06.2018 16:22 26,6 C 28,3 C 23,9 C 66 % 1009,6 hPa 0,0 l/m 2 min 0 min 788 W/m 11,3 km/h (2 Bft) 97,87 %
10.06.2018 16:24 26,5 C 27,8 C 23,9 C 66 % 1009,7 hPa 0,0 l/m 2 min 0 min 768 W/m 15,8 km/h (3 Bft) 95,74 %
10.06.2018 16:26 26,5 C 27,8 C 23,9 C 66 % 1009,5 hPa 0,0 l/m 2 min 0 min 658 W/m 13,5 km/h (3 Bft) 95,74 %
10.06.2018 16:28 26,4 C 27,8 C 23,9 C 66 % 1009,7 hPa 0,0 l/m 2 min 0 min 737 W/m 18,0 km/h (3 Bft) 97,83 %
10.06.2018 16:30 26,4 C 28,3 C 23,9 C 66 % 1009,5 hPa 0,0 l/m 2 min 0 min 721 W/m 9,0 km/h (2 Bft) 95,74 %
10.06.2018 16:32 26,4 C 28,3 C 23,9 C 67 % 1009,5 hPa 0,0 l/m 2 min 0 min 708 W/m 13,5 km/h (3 Bft) 97,87 %
10.06.2018 16:34 26,4 C 28,3 C 23,9 C 66 % 1009,4 hPa 0,0 l/m 2 min 0 min 699 W/m 18,0 km/h (3 Bft) 97,87 %
10.06.2018 16:36 26,4 C 28,3 C 23,9 C 66 % 1009,4 hPa 0,0 l/m 2 min 0 min 716 W/m 9,0 km/h (2 Bft) 97,87 %
10.06.2018 16:38 26,5 C 28,9 C 23,9 C 68 % 1009,4 hPa 0,0 l/m 2 min 0 min 716 W/m 9,0 km/h (2 Bft) 97,87 %
10.06.2018 16:40 26,6 C 28,9 C 23,9 C 67 % 1009,4 hPa 0,0 l/m 2 min 0 min 703 W/m 13,5 km/h (3 Bft) 97,83 %
10.06.2018 16:42 26,6 C 28,3 C 24,4 C 66 % 1009,4 hPa 0,0 l/m 2 min 0 min 741 W/m 13,5 km/h (3 Bft) 97,87 %
10.06.2018 16:44 26,6 C 27,8 C 24,4 C 66 % 1009,3 hPa 0,0 l/m 2 min 0 min 732 W/m 18,0 km/h (3 Bft) 97,87 %
10.06.2018 16:46 26,6 C 28,3 C 24,4 C 66 % 1009,3 hPa 0,0 l/m 2 min 0 min 673 W/m 15,8 km/h (3 Bft) 95,74 %
10.06.2018 16:48 26,6 C 27,8 C 23,9 C 65 % 1009,3 hPa 0,0 l/m 2 min 0 min 697 W/m 15,8 km/h (3 Bft) 95,74 %
10.06.2018 16:50 26,6 C 28,3 C 23,9 C 65 % 1009,3 hPa 0,0 l/m 2 min 0 min 693 W/m 9,0 km/h (2 Bft) 97,87 %
10.06.2018 16:52 26,6 C 28,3 C 23,9 C 65 % 1009,4 hPa 0,0 l/m 2 min 0 min 699 W/m 15,8 km/h (3 Bft) 95,65 %
10.06.2018 16:54 26,6 C 27,8 C 23,9 C 64 % 1009,3 hPa 0,0 l/m 2 min 0 min 705 W/m 11,3 km/h (2 Bft) 97,87 %
10.06.2018 16:56 26,6 C 28,3 C 23,9 C 65 % 1009,3 hPa 0,0 l/m 2 min 0 min 715 W/m 13,5 km/h (3 Bft) 97,87 %
10.06.2018 16:58 26,6 C 28,9 C 24,4 C 66 % 1009,3 hPa 0,0 l/m 2 min 0 min 746 W/m 6,8 km/h (2 Bft) 95,74 %
10.06.2018 17:00 26,6 C 28,3 C 24,4 C 65 % 1009,3 hPa 0,0 l/m 2 min 0 min 671 W/m 9,0 km/h (2 Bft) 95,74 %
10.06.2018 17:02 26,7 C 28,9 C 24,4 C 66 % 1009,3 hPa 0,0 l/m 2 min 0 min 626 W/m 13,5 km/h (3 Bft) 97,87 %
10.06.2018 17:04 26,7 C 28,3 C 24,4 C 66 % 1009,3 hPa 0,0 l/m 2 min 0 min 510 W/m 9,0 km/h (2 Bft) 98,25 %
10.06.2018 17:06 26,7 C 28,3 C 24,4 C 66 % 1009,3 hPa 0,0 l/m 2 min 0 min 517 W/m 9,0 km/h (2 Bft) 97,87 %
10.06.2018 17:08 26,7 C 27,8 C 24,4 C 65 % 1009,4 hPa 0,0 l/m 2 min 0 min 400 W/m 11,3 km/h (2 Bft) 97,87 %
10.06.2018 17:10 26,7 C 27,2 C 23,9 C 65 % 1009,4 hPa 0,0 l/m 2 min 0 min 330 W/m 13,5 km/h (3 Bft) 97,87 %
10.06.2018 17:12 26,6 C 26,7 C 23,9 C 64 % 1009,3 hPa 0,0 l/m 2 min 0 min 310 W/m 11,3 km/h (2 Bft) 100,00 %
10.06.2018 17:14 26,6 C 26,1 C 23,9 C 65 % 1009,3 hPa 0,0 l/m 2 min 0 min 310 W/m 11,3 km/h (2 Bft) 100,00 %
10.06.2018 17:16 26,4 C 26,7 C 23,3 C 65 % 1009,3 hPa 0,0 l/m 2 min 0 min 341 W/m 15,8 km/h (3 Bft) 100,00 %
10.06.2018 17:18 26,4 C 26,1 C 23,9 C 64 % 1009,3 hPa 0,0 l/m 2 min 0 min 339 W/m 6,8 km/h (2 Bft) 100,00 %
10.06.2018 17:20 26,3 C 26,1 C 23,9 C 65 % 1009,3 hPa 0,0 l/m 2 min 0 min 366 W/m 9,0 km/h (2 Bft) 100,00 %
10.06.2018 17:22 26,2 C 26,1 C 23,9 C 65 % 1009,3 hPa 0,0 l/m 2 min 0 min 341 W/m 6,8 km/h (2 Bft) 100,00 %
10.06.2018 17:24 26,2 C 26,1 C 23,9 C 65 % 1009,2 hPa 0,0 l/m 2 min 0 min 343 W/m 6,8 km/h (2 Bft) 100,00 %
10.06.2018 17:26 26,1 C 26,1 C 23,9 C 65 % 1009,3 hPa 0,0 l/m 2 min 0 min 330 W/m 4,5 km/h (1 Bft) 100,00 %
10.06.2018 17:28 26,1 C 26,7 C 23,9 C 66 % 1009,3 hPa 0,0 l/m 2 min 0 min 604 W/m 13,5 km/h (3 Bft) 100,00 %
10.06.2018 17:30 26,1 C 27,2 C 23,9 C 65 % 1009,3 hPa 0,0 l/m 2 min 0 min 604 W/m 11,3 km/h (2 Bft) 100,00 %
10.06.2018 17:32 26,1 C 26,7 C 23,9 C 65 % 1009,3 hPa 0,0 l/m 2 min 0 min 321 W/m 9,0 km/h (2 Bft) 100,00 %
10.06.2018 17:34 26,0 C 26,1 C 23,9 C 64 % 1009,3 hPa 0,0 l/m 2 min 0 min 308 W/m 15,8 km/h (3 Bft) 100,00 %
10.06.2018 17:36 26,0 C 26,1 C 23,9 C 65 % 1009,3 hPa 0,0 l/m 2 min 0 min 292 W/m 9,0 km/h (2 Bft) 94,29 %
10.06.2018 17:38 25,9 C 26,1 C 23,9 C 65 % 1009,3 hPa 0,0 l/m 2 min 0 min 302 W/m 9,0 km/h (2 Bft) 100,00 %
10.06.2018 17:40 25,9 C 26,1 C 23,9 C 66 % 1009,2 hPa 0,0 l/m 2 min 0 min 303 W/m 6,8 km/h (2 Bft) 100,00 %
10.06.2018 17:42 25,9 C 26,1 C 23,3 C 65 % 1009,2 hPa 0,0 l/m 0 min 0 min 268 W/m 13,5 km/h (3 Bft) 100,00 %
10.06.2018 17:44 25,8 C 25,6 C 23,3 C 65 % 1009,2 hPa 0,0 l/m 0 min 0 min 250 W/m 9,0 km/h (2 Bft) 100,00 %
10.06.2018 17:46 25,8 C 25,6 C 23,3 C 65 % 1009,2 hPa 0,0 l/m 0 min 0 min 250 W/m 4,5 km/h (1 Bft) 100,00 %
10.06.2018 17:48 25,8 C 25,6 C 23,3 C 66 % 1009,1 hPa 0,0 l/m 0 min 0 min 242 W/m 9,0 km/h (2 Bft) 100,00 %
10.06.2018 17:50 25,7 C 25,6 C 23,3 C 65 % 1009,2 hPa 0,0 l/m 0 min 0 min 233 W/m 15,8 km/h (3 Bft) 100,00 %
10.06.2018 17:52 25,7 C 25,6 C 23,3 C 65 % 1009,1 hPa 0,0 l/m 0 min 0 min 228 W/m 13,5 km/h (3 Bft) 100,00 %
10.06.2018 17:54 25,7 C 25,6 C 23,3 C 65 % 1009,0 hPa 0,0 l/m 2 min 0 min 375 W/m 9,0 km/h (2 Bft) 100,00 %
10.06.2018 17:56 25,7 C 25,6 C 23,3 C 66 % 1009,0 hPa 0,0 l/m 2 min 0 min 498 W/m 11,3 km/h (2 Bft) 100,00 %
10.06.2018 17:58 25,6 C 26,1 C 23,9 C 66 % 1009,0 hPa 0,0 l/m 2 min 0 min 277 W/m 9,0 km/h (2 Bft) 100,00 %
10.06.2018 18:00 25,6 C 26,1 C 23,9 C 66 % 1009,0 hPa 0,0 l/m 2 min 0 min 477 W/m 11,3 km/h (2 Bft) 100,00 %
10.06.2018 18:02 25,6 C 26,7 C 23,9 C 67 % 1009,0 hPa 0,0 l/m 2 min 0 min 479 W/m 13,5 km/h (3 Bft) 100,00 %
10.06.2018 18:04 25,6 C 26,7 C 23,9 C 67 % 1009,0 hPa 0,0 l/m 2 min 0 min 481 W/m 11,3 km/h (2 Bft) 100,00 %
10.06.2018 18:08 25,7 C 27,2 C 23,9 C 67 % 1009,0 hPa 0,0 l/m 4 min 0 min 471 W/m 11,3 km/h (2 Bft) 100,00 %
10.06.2018 18:10 25,8 C 27,2 C 23,9 C 66 % 1009,0 hPa 0,0 l/m 2 min 0 min 511 W/m 9,0 km/h (2 Bft) 97,87 %
10.06.2018 18:12 25,8 C 27,2 C 23,9 C 66 % 1009,0 hPa 0,0 l/m 2 min 0 min 506 W/m 9,0 km/h (2 Bft) 97,87 %
10.06.2018 18:14 25,8 C 27,2 C 23,9 C 66 % 1009,0 hPa 0,0 l/m 2 min 0 min 504 W/m 9,0 km/h (2 Bft) 97,83 %
10.06.2018 18:16 25,9 C 27,2 C 23,9 C 67 % 1009,1 hPa 0,0 l/m 2 min 0 min 514 W/m 13,5 km/h (3 Bft) 97,87 %
10.06.2018 18:18 25,9 C 26,7 C 23,9 C 65 % 1009,0 hPa 0,0 l/m 2 min 0 min 419 W/m 15,8 km/h (3 Bft) 97,87 %
10.06.2018 18:20 25,9 C 26,1 C 23,9 C 65 % 1009,1 hPa 0,0 l/m 0 min 0 min 203 W/m 9,0 km/h (2 Bft) 97,87 %
10.06.2018 18:22 25,9 C 26,1 C 23,3 C 65 % 1009,0 hPa 0,0 l/m 2 min 0 min 235 W/m 13,5 km/h (3 Bft) 97,87 %
10.06.2018 18:24 25,8 C 26,1 C 23,3 C 65 % 1009,0 hPa 0,0 l/m 2 min 0 min 367 W/m 9,0 km/h (2 Bft) 97,87 %
10.06.2018 18:26 25,8 C 26,1 C 23,9 C 65 % 1009,0 hPa 0,0 l/m 2 min 0 min 343 W/m 4,5 km/h (1 Bft) 97,83 %
10.06.2018 18:28 25,8 C 26,1 C 23,9 C 66 % 1009,1 hPa 0,0 l/m 2 min 0 min 278 W/m 6,8 km/h (2 Bft) 95,74 %
10.06.2018 18:30 25,8 C 26,1 C 23,9 C 66 % 1009,0 hPa 0,0 l/m 2 min 0 min 419 W/m 11,3 km/h (2 Bft) 95,74 %
10.06.2018 18:32 25,8 C 26,1 C 23,9 C 66 % 1009,0 hPa 0,0 l/m 2 min 0 min 408 W/m 11,3 km/h (2 Bft) 95,92 %
10.06.2018 18:34 25,8 C 26,1 C 23,9 C 65 % 1009,0 hPa 0,0 l/m 2 min 0 min 387 W/m 6,8 km/h (2 Bft) 95,74 %
10.06.2018 18:36 25,7 C 26,1 C 23,9 C 66 % 1008,9 hPa 0,0 l/m 2 min 0 min 406 W/m 11,3 km/h (2 Bft) 95,74 %
10.06.2018 18:38 25,7 C 26,1 C 23,9 C 65 % 1008,9 hPa 0,0 l/m 2 min 0 min 390 W/m 9,0 km/h (2 Bft) 95,65 %
10.06.2018 18:40 25,7 C 26,1 C 23,9 C 65 % 1008,9 hPa 0,0 l/m 2 min 0 min 360 W/m 9,0 km/h (2 Bft) 95,74 %
10.06.2018 18:42 25,7 C 26,1 C 23,9 C 66 % 1008,9 hPa 0,0 l/m 2 min 0 min 316 W/m 9,0 km/h (2 Bft) 95,74 %
10.06.2018 18:44 25,7 C 26,1 C 23,9 C 66 % 1008,9 hPa 0,0 l/m 2 min 0 min 324 W/m 6,8 km/h (2 Bft) 93,62 %
10.06.2018 18:46 25,7 C 26,1 C 23,9 C 65 % 1009,0 hPa 0,0 l/m 2 min 0 min 314 W/m 13,5 km/h (3 Bft) 95,74 %
10.06.2018 18:48 25,7 C 26,1 C 23,9 C 65 % 1009,0 hPa 0,0 l/m 2 min 0 min 320 W/m 11,3 km/h (2 Bft) 95,74 %
10.06.2018 18:50 25,7 C 25,6 C 23,9 C 65 % 1009,1 hPa 0,0 l/m 2 min 0 min 343 W/m 13,5 km/h (3 Bft) 95,65 %
10.06.2018 18:52 25,7 C 26,1 C 23,9 C 64 % 1009,1 hPa 0,0 l/m 2 min 0 min 365 W/m 9,0 km/h (2 Bft) 94,87 %
10.06.2018 18:54 25,7 C 25,6 C 23,9 C 64 % 1009,1 hPa 0,0 l/m 2 min 0 min 359 W/m 11,3 km/h (2 Bft) 95,74 %
10.06.2018 18:56 25,7 C 25,6 C 23,9 C 64 % 1009,1 hPa 0,0 l/m 2 min 0 min 344 W/m 11,3 km/h (2 Bft) 97,87 %
10.06.2018 18:58 25,7 C 25,6 C 23,3 C 64 % 1009,0 hPa 0,0 l/m 2 min 0 min 353 W/m 15,8 km/h (3 Bft) 97,87 %
10.06.2018 19:00 25,7 C 25,6 C 23,3 C 64 % 1009,0 hPa 0,0 l/m 2 min 0 min 361 W/m 9,0 km/h (2 Bft) 95,74 %
10.06.2018 19:02 25,7 C 25,6 C 23,3 C 64 % 1009,0 hPa 0,0 l/m 2 min 0 min 335 W/m 9,0 km/h (2 Bft) 95,65 %
10.06.2018 19:04 25,7 C 25,6 C 23,3 C 64 % 1009,1 hPa 0,0 l/m 2 min 0 min 295 W/m 6,8 km/h (2 Bft) 97,87 %
10.06.2018 19:06 25,6 C 25,6 C 23,3 C 64 % 1009,1 hPa 0,0 l/m 2 min 0 min 195 W/m 6,8 km/h (2 Bft) 97,87 %
10.06.2018 19:08 25,6 C 25,6 C 23,3 C 65 % 1009,2 hPa 0,0 l/m 2 min 0 min 274 W/m 6,8 km/h (2 Bft) 97,87 %
10.06.2018 19:10 25,6 C 25,6 C 23,3 C 65 % 1009,2 hPa 0,0 l/m 2 min 0 min 340 W/m 9,0 km/h (2 Bft) 95,74 %
10.06.2018 19:12 25,6 C 25,6 C 23,3 C 65 % 1009,2 hPa 0,0 l/m 2 min 0 min 345 W/m 6,8 km/h (2 Bft) 95,65 %
10.06.2018 19:14 25,6 C 26,1 C 23,3 C 64 % 1009,1 hPa 0,0 l/m 2 min 0 min 323 W/m 4,5 km/h (1 Bft) 95,74 %
10.06.2018 19:16 25,6 C 26,1 C 23,3 C 64 % 1009,2 hPa 0,0 l/m 2 min 0 min 317 W/m 6,8 km/h (2 Bft) 95,74 %
10.06.2018 19:18 25,6 C 25,6 C 23,3 C 64 % 1009,1 hPa 0,0 l/m 2 min 0 min 316 W/m 9,0 km/h (2 Bft) 97,87 %
10.06.2018 19:20 25,6 C 25,6 C 23,3 C 64 % 1009,1 hPa 0,0 l/m 2 min 0 min 303 W/m 11,3 km/h (2 Bft) 97,87 %
10.06.2018 19:22 25,6 C 25,6 C 23,3 C 63 % 1009,2 hPa 0,0 l/m 2 min 0 min 304 W/m 11,3 km/h (2 Bft) 97,87 %
10.06.2018 19:24 25,5 C 25,6 C 23,3 C 63 % 1009,3 hPa 0,0 l/m 2 min 0 min 295 W/m 9,0 km/h (2 Bft) 95,65 %
10.06.2018 19:26 25,5 C 25,6 C 23,3 C 63 % 1009,3 hPa 0,0 l/m 2 min 0 min 312 W/m 11,3 km/h (2 Bft) 95,74 %
10.06.2018 19:28 25,4 C 25,6 C 23,3 C 63 % 1009,2 hPa 0,0 l/m 2 min 0 min 294 W/m 9,0 km/h (2 Bft) 97,87 %
10.06.2018 19:30 25,4 C 25,6 C 23,3 C 63 % 1009,2 hPa 0,0 l/m 2 min 0 min 265 W/m 9,0 km/h (2 Bft) 100,00 %
10.06.2018 19:32 25,4 C 25,6 C 23,3 C 64 % 1009,2 hPa 0,0 l/m 2 min 0 min 202 W/m 13,5 km/h (3 Bft) 95,74 %
10.06.2018 19:34 25,3 C 25,0 C 23,3 C 64 % 1009,3 hPa 0,0 l/m 2 min 0 min 196 W/m 6,8 km/h (2 Bft) 95,74 %
10.06.2018 19:36 25,3 C 25,0 C 23,3 C 64 % 1009,3 hPa 0,0 l/m 2 min 0 min 180 W/m 11,3 km/h (2 Bft) 98,15 %
10.06.2018 19:38 25,2 C 25,0 C 22,8 C 64 % 1009,2 hPa 0,0 l/m 2 min 0 min 208 W/m 9,0 km/h (2 Bft) 95,74 %
10.06.2018 19:40 25,2 C 25,0 C 22,8 C 64 % 1009,2 hPa 0,0 l/m 2 min 0 min 244 W/m 6,8 km/h (2 Bft) 97,87 %
10.06.2018 19:42 25,2 C 25,0 C 22,8 C 64 % 1009,2 hPa 0,0 l/m 2 min 0 min 227 W/m 6,8 km/h (2 Bft) 97,87 %
10.06.2018 19:44 25,1 C 25,0 C 22,8 C 64 % 1009,2 hPa 0,0 l/m 2 min 0 min 167 W/m 9,0 km/h (2 Bft) 97,87 %
10.06.2018 19:46 25,1 C 24,4 C 22,8 C 64 % 1009,2 hPa 0,0 l/m 2 min 0 min 191 W/m 11,3 km/h (2 Bft) 97,87 %
10.06.2018 19:48 25,1 C 24,4 C 22,8 C 64 % 1009,1 hPa 0,0 l/m 2 min 0 min 182 W/m 6,8 km/h (2 Bft) 95,74 %
10.06.2018 19:50 25,1 C 24,4 C 22,8 C 64 % 1009,2 hPa 0,0 l/m 2 min 0 min 128 W/m 6,8 km/h (2 Bft) 97,83 %
10.06.2018 19:52 25,0 C 24,4 C 22,8 C 64 % 1009,1 hPa 0,0 l/m 0 min 0 min 100 W/m 11,3 km/h (2 Bft) 97,87 %
10.06.2018 19:54 24,9 C 24,4 C 22,8 C 64 % 1009,1 hPa 0,0 l/m 0 min 0 min 81 W/m 11,3 km/h (2 Bft) 97,87 %
10.06.2018 19:56 24,9 C 23,9 C 22,8 C 64 % 1009,1 hPa 0,0 l/m 0 min 0 min 93 W/m 15,8 km/h (3 Bft) 97,87 %
10.06.2018 19:58 24,8 C 23,9 C 22,8 C 64 % 1009,2 hPa 0,0 l/m 0 min 0 min 90 W/m 11,3 km/h (2 Bft) 95,74 %
10.06.2018 20:00 24,8 C 23,9 C 22,8 C 64 % 1009,2 hPa 0,0 l/m 0 min 0 min 84 W/m 6,8 km/h (2 Bft) 95,65 %
10.06.2018 20:02 24,7 C 23,9 C 22,8 C 64 % 1009,1 hPa 0,0 l/m 0 min 0 min 84 W/m 6,8 km/h (2 Bft) 95,83 %
10.06.2018 20:04 24,7 C 23,9 C 22,8 C 65 % 1009,1 hPa 0,0 l/m 0 min 0 min 83 W/m 4,5 km/h (1 Bft) 97,87 %
10.06.2018 20:06 24,6 C 23,9 C 22,8 C 65 % 1009,1 hPa 0,0 l/m 0 min 0 min 82 W/m 11,3 km/h (2 Bft) 97,92 %
10.06.2018 20:08 24,6 C 23,9 C 22,8 C 65 % 1009,1 hPa 0,0 l/m 0 min 0 min 81 W/m 4,5 km/h (1 Bft) 97,87 %
10.06.2018 20:10 24,6 C 23,9 C 22,8 C 65 % 1009,1 hPa 0,0 l/m 0 min 0 min 80 W/m 6,8 km/h (2 Bft) 97,87 %
10.06.2018 20:12 24,6 C 23,9 C 22,8 C 66 % 1009,1 hPa 0,0 l/m 0 min 0 min 78 W/m 9,0 km/h (2 Bft) 97,83 %
10.06.2018 20:14 24,5 C 23,9 C 22,8 C 66 % 1009,0 hPa 0,0 l/m 0 min 0 min 76 W/m 6,8 km/h (2 Bft) 97,87 %
10.06.2018 20:16 24,5 C 23,9 C 22,8 C 66 % 1009,0 hPa 0,0 l/m 0 min 0 min 74 W/m 9,0 km/h (2 Bft) 97,87 %
10.06.2018 20:18 24,4 C 23,9 C 22,8 C 66 % 1009,0 hPa 0,0 l/m 0 min 0 min 73 W/m 11,3 km/h (2 Bft) 97,87 %
10.06.2018 20:20 24,4 C 23,9 C 22,8 C 66 % 1009,0 hPa 0,0 l/m 0 min 0 min 72 W/m 6,8 km/h (2 Bft) 97,87 %
10.06.2018 20:22 24,4 C 23,9 C 22,8 C 67 % 1009,0 hPa 0,0 l/m 0 min 0 min 72 W/m 4,5 km/h (1 Bft) 95,65 %
10.06.2018 20:24 24,4 C 23,9 C 22,8 C 66 % 1009,0 hPa 0,0 l/m 0 min 0 min 72 W/m 4,5 km/h (1 Bft) 97,87 %
10.06.2018 20:26 24,3 C 23,3 C 22,2 C 67 % 1009,0 hPa 0,0 l/m 0 min 0 min 72 W/m 6,8 km/h (2 Bft) 100,00 %
10.06.2018 20:28 24,3 C 23,3 C 22,2 C 66 % 1009,1 hPa 0,0 l/m 0 min 0 min 72 W/m 4,5 km/h (1 Bft) 97,87 %
10.06.2018 20:30 24,2 C 23,3 C 22,2 C 67 % 1009,1 hPa 0,0 l/m 0 min 0 min 72 W/m 4,5 km/h (1 Bft) 100,00 %
10.06.2018 20:32 24,2 C 23,3 C 22,2 C 67 % 1009,1 hPa 0,0 l/m 0 min 0 min 71 W/m 6,8 km/h (2 Bft) 97,92 %
10.06.2018 20:34 24,2 C 23,3 C 22,2 C 67 % 1009,1 hPa 0,0 l/m 0 min 0 min 70 W/m 4,5 km/h (1 Bft) 100,00 %
10.06.2018 20:36 24,2 C 23,3 C 22,2 C 67 % 1009,1 hPa 0,0 l/m 0 min 0 min 70 W/m 6,8 km/h (2 Bft) 100,00 %
10.06.2018 20:38 24,1 C 23,3 C 22,2 C 68 % 1009,1 hPa 0,0 l/m 0 min 0 min 70 W/m 4,5 km/h (1 Bft) 100,00 %
10.06.2018 20:40 24,1 C 23,3 C 22,2 C 68 % 1009,1 hPa 0,0 l/m 2 min 0 min 70 W/m 11,3 km/h (2 Bft) 100,00 %
10.06.2018 20:42 24,1 C 23,3 C 22,2 C 68 % 1009,1 hPa 0,0 l/m 2 min 0 min 70 W/m 11,3 km/h (2 Bft) 100,00 %
10.06.2018 20:44 24,0 C 23,3 C 22,2 C 68 % 1009,2 hPa 0,0 l/m 2 min 0 min 69 W/m 13,5 km/h (3 Bft) 100,00 %
10.06.2018 20:46 23,9 C 23,3 C 22,2 C 68 % 1009,2 hPa 0,0 l/m 2 min 0 min 64 W/m 13,5 km/h (3 Bft) 97,83 %
10.06.2018 20:48 23,9 C 23,3 C 22,2 C 68 % 1009,2 hPa 0,0 l/m 2 min 0 min 62 W/m 15,8 km/h (3 Bft) 97,87 %
10.06.2018 20:50 23,9 C 23,3 C 22,2 C 68 % 1009,3 hPa 0,0 l/m 2 min 0 min 61 W/m 9,0 km/h (2 Bft) 93,62 %
10.06.2018 20:52 23,8 C 22,8 C 22,2 C 68 % 1009,3 hPa 0,0 l/m 2 min 0 min 62 W/m 15,8 km/h (3 Bft) 97,87 %
10.06.2018 20:54 23,8 C 22,8 C 22,2 C 69 % 1009,3 hPa 0,0 l/m 2 min 0 min 54 W/m 13,5 km/h (3 Bft) 97,87 %
10.06.2018 20:56 23,7 C 22,8 C 22,2 C 69 % 1009,3 hPa 0,0 l/m 2 min 0 min 50 W/m 6,8 km/h (2 Bft) 97,87 %
10.06.2018 20:58 23,7 C 22,8 C 22,2 C 69 % 1009,4 hPa 0,0 l/m 2 min 0 min 49 W/m 6,8 km/h (2 Bft) 97,83 %
10.06.2018 21:00 23,7 C 22,8 C 21,7 C 69 % 1009,3 hPa 0,0 l/m 2 min 0 min 49 W/m 4,5 km/h (1 Bft) 97,87 %
10.06.2018 21:02 23,7 C 22,8 C 21,7 C 69 % 1009,4 hPa 0,0 l/m 2 min 0 min 45 W/m 9,0 km/h (2 Bft) 97,87 %
10.06.2018 21:04 23,6 C 22,8 C 21,7 C 70 % 1009,4 hPa 0,0 l/m 2 min 0 min 41 W/m 6,8 km/h (2 Bft) 97,87 %
10.06.2018 21:06 23,6 C 22,8 C 21,7 C 70 % 1009,4 hPa 0,0 l/m 2 min 0 min 40 W/m 6,8 km/h (2 Bft) 91,49 %
10.06.2018 21:08 23,6 C 22,8 C 21,7 C 70 % 1009,4 hPa 0,0 l/m 2 min 0 min 40 W/m 4,5 km/h (1 Bft) 97,87 %
10.06.2018 21:10 23,5 C 22,8 C 21,7 C 70 % 1009,4 hPa 0,0 l/m 2 min 0 min 39 W/m 4,5 km/h (1 Bft) 97,83 %
10.06.2018 21:12 23,5 C 22,8 C 21,7 C 70 % 1009,5 hPa 0,0 l/m 2 min 0 min 39 W/m 6,8 km/h (2 Bft) 95,74 %
10.06.2018 21:14 23,5 C 22,8 C 21,7 C 70 % 1009,5 hPa 0,0 l/m 2 min 0 min 39 W/m 4,5 km/h (1 Bft) 97,87 %
10.06.2018 21:16 23,4 C 22,2 C 21,7 C 70 % 1009,5 hPa 0,0 l/m 2 min 0 min 39 W/m 6,8 km/h (2 Bft) 97,87 %
10.06.2018 21:18 23,4 C 22,2 C 21,7 C 70 % 1009,6 hPa 0,0 l/m 2 min 0 min 37 W/m 9,0 km/h (2 Bft) 97,87 %
10.06.2018 21:20 23,4 C 22,2 C 21,7 C 70 % 1009,6 hPa 0,0 l/m 2 min 0 min 33 W/m 2,3 km/h (1 Bft) 97,87 %
10.06.2018 21:22 23,3 C 22,2 C 21,7 C 71 % 1009,7 hPa 0,0 l/m 2 min 0 min 29 W/m 6,8 km/h (2 Bft) 97,83 %
10.06.2018 21:24 23,3 C 22,2 C 21,7 C 71 % 1009,7 hPa 0,0 l/m 2 min 0 min 26 W/m 4,5 km/h (1 Bft) 95,74 %
10.06.2018 21:26 23,3 C 22,2 C 21,7 C 71 % 1009,8 hPa 0,0 l/m 2 min 0 min 23 W/m 6,8 km/h (2 Bft) 97,87 %
10.06.2018 21:28 23,2 C 22,2 C 21,1 C 71 % 1009,8 hPa 0,0 l/m 0 min 0 min 19 W/m 9,0 km/h (2 Bft) 97,87 %
10.06.2018 21:30 23,2 C 22,2 C 21,1 C 71 % 1009,8 hPa 0,0 l/m 0 min 0 min 19 W/m 4,5 km/h (1 Bft) 97,87 %
10.06.2018 21:32 23,2 C 22,2 C 21,1 C 71 % 1009,8 hPa 0,0 l/m 0 min 0 min 17 W/m 9,0 km/h (2 Bft) 100,00 %
10.06.2018 21:34 23,1 C 22,2 C 21,1 C 71 % 1009,8 hPa 0,0 l/m 0 min 0 min 15 W/m 4,5 km/h (1 Bft) 97,83 %
10.06.2018 21:36 23,1 C 21,7 C 21,1 C 71 % 1009,8 hPa 0,0 l/m 0 min 0 min 13 W/m 2,3 km/h (1 Bft) 100,00 %
10.06.2018 21:38 23,1 C 21,7 C 21,1 C 72 % 1009,9 hPa 0,0 l/m 0 min 0 min 12 W/m 6,8 km/h (2 Bft) 100,00 %
10.06.2018 21:40 23,0 C 21,7 C 21,1 C 72 % 1009,9 hPa 0,0 l/m 0 min 0 min 11 W/m 6,8 km/h (2 Bft) 100,00 %
10.06.2018 21:42 22,9 C 21,7 C 21,1 C 72 % 1009,9 hPa 0,0 l/m 0 min 0 min 9 W/m 6,8 km/h (2 Bft) 97,87 %
10.06.2018 21:44 22,9 C 21,7 C 21,1 C 72 % 1009,9 hPa 0,0 l/m 0 min 0 min 7 W/m 4,5 km/h (1 Bft) 100,00 %
10.06.2018 21:46 22,9 C 21,7 C 21,1 C 72 % 1010,0 hPa 0,0 l/m 0 min 0 min 7 W/m 6,8 km/h (2 Bft) 100,00 %
10.06.2018 21:48 22,8 C 21,7 C 21,1 C 72 % 1010,1 hPa 0,0 l/m 0 min 0 min 7 W/m 4,5 km/h (1 Bft) 97,87 %
10.06.2018 21:50 22,8 C 21,7 C 21,1 C 72 % 1010,1 hPa 0,0 l/m 0 min 0 min 6 W/m 6,8 km/h (2 Bft) 97,87 %
10.06.2018 21:52 22,8 C 21,7 C 21,1 C 73 % 1010,1 hPa 0,0 l/m 0 min 0 min 5 W/m 4,5 km/h (1 Bft) 97,87 %
10.06.2018 21:54 22,7 C 21,1 C 21,1 C 73 % 1010,1 hPa 0,0 l/m 0 min 0 min 5 W/m 4,5 km/h (1 Bft) 97,87 %
10.06.2018 21:56 22,7 C 21,1 C 21,1 C 73 % 1010,2 hPa 0,0 l/m 0 min 0 min 5 W/m 4,5 km/h (1 Bft) 95,74 %
10.06.2018 21:58 22,7 C 21,1 C 20,6 C 73 % 1010,2 hPa 0,0 l/m 0 min 0 min 5 W/m 6,8 km/h (2 Bft) 97,83 %
10.06.2018 22:00 22,6 C 21,1 C 20,6 C 74 % 1010,3 hPa 0,0 l/m 0 min 0 min 2 W/m 6,8 km/h (2 Bft) 95,74 %
10.06.2018 22:02 22,6 C 21,1 C 20,6 C 74 % 1010,3 hPa 0,0 l/m 0 min 0 min 0 W/m 6,8 km/h (2 Bft) 97,87 %
10.06.2018 22:04 22,5 C 21,1 C 20,6 C 74 % 1010,3 hPa 0,0 l/m 0 min 0 min 0 W/m 6,8 km/h (2 Bft) 97,87 %
10.06.2018 22:06 22,5 C 21,1 C 20,6 C 74 % 1010,2 hPa 0,0 l/m 0 min 0 min 0 W/m 6,8 km/h (2 Bft) 97,87 %
10.06.2018 22:08 22,4 C 21,1 C 20,6 C 74 % 1010,3 hPa 0,0 l/m 0 min 0 min 0 W/m 4,5 km/h (1 Bft) 97,83 %
10.06.2018 22:10 22,4 C 21,1 C 20,6 C 74 % 1010,4 hPa 0,0 l/m 0 min 0 min 0 W/m 6,8 km/h (2 Bft) 95,74 %
10.06.2018 22:12 22,3 C 21,1 C 20,6 C 74 % 1010,4 hPa 0,0 l/m 0 min 0 min 0 W/m 4,5 km/h (1 Bft) 97,87 %
10.06.2018 22:14 22,3 C 21,1 C 20,6 C 74 % 1010,4 hPa 0,0 l/m 0 min 0 min 0 W/m 2,3 km/h (1 Bft) 97,87 %
10.06.2018 22:16 22,3 C 20,6 C 20,6 C 75 % 1010,4 hPa 0,0 l/m 0 min 0 min 0 W/m 4,5 km/h (1 Bft) 95,74 %
10.06.2018 22:18 22,2 C 20,6 C 20,6 C 75 % 1010,4 hPa 0,0 l/m 0 min 0 min 0 W/m 2,3 km/h (1 Bft) 95,74 %
10.06.2018 22:20 22,2 C 20,6 C 20,6 C 75 % 1010,4 hPa 0,0 l/m 0 min 0 min 0 W/m 6,8 km/h (2 Bft) 93,48 %
10.06.2018 22:22 22,2 C 20,6 C 20,6 C 75 % 1010,4 hPa 0,0 l/m 0 min 0 min 0 W/m 4,5 km/h (1 Bft) 95,74 %
10.06.2018 22:24 22,1 C 20,6 C 20,6 C 76 % 1010,4 hPa 0,0 l/m 0 min 0 min 0 W/m 2,3 km/h (1 Bft) 97,87 %
10.06.2018 22:26 22,1 C 20,6 C 20,6 C 76 % 1010,4 hPa 0,0 l/m 0 min 0 min 0 W/m 9,0 km/h (2 Bft) 95,74 %
10.06.2018 22:28 22,0 C 20,6 C 20,6 C 75 % 1010,4 hPa 0,0 l/m 0 min 0 min 0 W/m 6,8 km/h (2 Bft) 93,62 %
10.06.2018 22:30 21,9 C 20,6 C 20,6 C 76 % 1010,4 hPa 0,0 l/m 0 min 0 min 0 W/m 6,8 km/h (2 Bft) 95,74 %
10.06.2018 22:32 21,9 C 20,6 C 20,6 C 76 % 1010,4 hPa 0,0 l/m 0 min 0 min 0 W/m 11,3 km/h (2 Bft) 97,83 %
10.06.2018 22:34 21,8 C 20,6 C 20,0 C 76 % 1010,4 hPa 0,0 l/m 0 min 0 min 0 W/m 9,0 km/h (2 Bft) 97,87 %
10.06.2018 22:36 21,8 C 20,6 C 20,0 C 76 % 1010,4 hPa 0,0 l/m 0 min 0 min 0 W/m 4,5 km/h (1 Bft) 98,00 %
10.06.2018 22:38 21,7 C 20,6 C 20,0 C 76 % 1010,4 hPa 0,0 l/m 0 min 0 min 0 W/m 6,8 km/h (2 Bft) 95,74 %
10.06.2018 22:40 21,7 C 20,6 C 20,0 C 76 % 1010,5 hPa 0,0 l/m 0 min 0 min 0 W/m 6,8 km/h (2 Bft) 95,74 %
10.06.2018 22:42 21,7 C 20,6 C 20,0 C 76 % 1010,5 hPa 0,0 l/m 0 min 0 min 0 W/m 6,8 km/h (2 Bft) 93,62 %
10.06.2018 22:44 21,6 C 20,6 C 20,0 C 77 % 1010,5 hPa 0,0 l/m 0 min 0 min 0 W/m 9,0 km/h (2 Bft) 93,48 %
10.06.2018 22:46 21,6 C 20,6 C 20,0 C 77 % 1010,5 hPa 0,0 l/m 0 min 0 min 0 W/m 6,8 km/h (2 Bft) 97,87 %
10.06.2018 22:48 21,6 C 20,6 C 20,0 C 76 % 1010,5 hPa 0,0 l/m 0 min 0 min 0 W/m 2,3 km/h (1 Bft) 97,87 %
10.06.2018 22:50 21,5 C 20,6 C 20,0 C 77 % 1010,5 hPa 0,0 l/m 0 min 0 min 0 W/m 6,8 km/h (2 Bft) 95,74 %
10.06.2018 22:52 21,5 C 20,0 C 20,0 C 77 % 1010,5 hPa 0,0 l/m 0 min 0 min 0 W/m 2,3 km/h (1 Bft) 95,74 %
10.06.2018 22:54 21,4 C 20,0 C 20,0 C 77 % 1010,4 hPa 0,0 l/m 0 min 0 min 0 W/m 4,5 km/h (1 Bft) 97,87 %
10.06.2018 22:56 21,4 C 20,0 C 20,0 C 77 % 1010,4 hPa 0,0 l/m 0 min 0 min 0 W/m 4,5 km/h (1 Bft) 97,83 %
10.06.2018 22:58 21,4 C 20,0 C 20,0 C 77 % 1010,4 hPa 0,0 l/m 0 min 0 min 0 W/m 4,5 km/h (1 Bft) 97,87 %
10.06.2018 23:00 21,3 C 20,0 C 20,0 C 77 % 1010,4 hPa 0,0 l/m 0 min 0 min 0 W/m 4,5 km/h (1 Bft) 97,87 %
10.06.2018 23:02 21,3 C 20,0 C 20,0 C 78 % 1010,4 hPa 0,0 l/m 0 min 0 min 0 W/m 4,5 km/h (1 Bft) 95,74 %
10.06.2018 23:04 21,3 C 20,0 C 20,0 C 78 % 1010,5 hPa 0,0 l/m 0 min 0 min 0 W/m 2,3 km/h (1 Bft) 97,87 %
10.06.2018 23:06 21,2 C 20,0 C 19,4 C 78 % 1010,5 hPa 0,0 l/m 0 min 0 min 0 W/m 4,5 km/h (1 Bft) 95,65 %
10.06.2018 23:08 21,2 C 20,0 C 19,4 C 78 % 1010,5 hPa 0,0 l/m 0 min 0 min 0 W/m 9,0 km/h (2 Bft) 97,87 %
10.06.2018 23:10 21,2 C 20,0 C 19,4 C 78 % 1010,5 hPa 0,0 l/m 0 min 0 min 0 W/m 6,8 km/h (2 Bft) 97,87 %
10.06.2018 23:12 21,1 C 20,0 C 19,4 C 78 % 1010,4 hPa 0,0 l/m 0 min 0 min 0 W/m 13,5 km/h (3 Bft) 95,74 %
10.06.2018 23:14 21,1 C 20,0 C 19,4 C 78 % 1010,4 hPa 0,0 l/m 0 min 0 min 0 W/m 2,3 km/h (1 Bft) 95,74 %
10.06.2018 23:16 21,1 C 19,4 C 19,4 C 78 % 1010,4 hPa 0,0 l/m 0 min 0 min 0 W/m 0,0 km/h (0 Bft) 97,87 %
10.06.2018 23:18 21,0 C 19,4 C 19,4 C 79 % 1010,4 hPa 0,0 l/m 0 min 0 min 0 W/m 4,5 km/h (1 Bft) 97,83 %
10.06.2018 23:20 21,0 C 19,4 C 19,4 C 79 % 1010,4 hPa 0,0 l/m 0 min 0 min 0 W/m 4,5 km/h (1 Bft) 97,87 %
10.06.2018 23:22 20,9 C 19,4 C 19,4 C 79 % 1010,4 hPa 0,0 l/m 0 min 0 min 0 W/m 6,8 km/h (2 Bft) 100,00 %
10.06.2018 23:24 20,9 C 19,4 C 19,4 C 79 % 1010,4 hPa 0,0 l/m 0 min 0 min 0 W/m 9,0 km/h (2 Bft) 100,00 %
10.06.2018 23:26 20,8 C 19,4 C 19,4 C 79 % 1010,4 hPa 0,0 l/m 0 min 0 min 0 W/m 9,0 km/h (2 Bft) 97,87 %
10.06.2018 23:28 20,8 C 19,4 C 19,4 C 79 % 1010,4 hPa 0,0 l/m 0 min 0 min 0 W/m 11,3 km/h (2 Bft) 97,87 %
10.06.2018 23:30 20,8 C 19,4 C 19,4 C 79 % 1010,3 hPa 0,0 l/m 0 min 0 min 0 W/m 6,8 km/h (2 Bft) 100,00 %
10.06.2018 23:32 20,7 C 19,4 C 19,4 C 79 % 1010,4 hPa 0,0 l/m 0 min 0 min 0 W/m 4,5 km/h (1 Bft) 97,87 %
10.06.2018 23:34 20,7 C 19,4 C 19,4 C 79 % 1010,4 hPa 0,0 l/m 0 min 0 min 0 W/m 4,5 km/h (1 Bft) 97,87 %
10.06.2018 23:36 20,7 C 19,4 C 19,4 C 79 % 1010,4 hPa 0,0 l/m 0 min 0 min 0 W/m 4,5 km/h (1 Bft) 97,87 %
10.06.2018 23:38 20,6 C 19,4 C 19,4 C 80 % 1010,5 hPa 0,0 l/m 0 min 0 min 0 W/m 4,5 km/h (1 Bft) 95,74 %
10.06.2018 23:40 20,6 C 19,4 C 18,9 C 80 % 1010,5 hPa 0,0 l/m 0 min 0 min 0 W/m 4,5 km/h (1 Bft) 97,87 %
10.06.2018 23:42 20,5 C 19,4 C 18,9 C 80 % 1010,4 hPa 0,0 l/m 0 min 0 min 0 W/m 4,5 km/h (1 Bft) 97,83 %
10.06.2018 23:44 20,4 C 19,4 C 18,9 C 80 % 1010,5 hPa 0,0 l/m 0 min 0 min 0 W/m 6,8 km/h (2 Bft) 93,62 %
10.06.2018 23:46 20,4 C 19,4 C 18,9 C 80 % 1010,5 hPa 0,0 l/m 0 min 0 min 0 W/m 13,5 km/h (3 Bft) 97,87 %
10.06.2018 23:48 20,4 C 19,4 C 18,9 C 80 % 1010,4 hPa 0,0 l/m 0 min 0 min 0 W/m 11,3 km/h (2 Bft) 97,87 %
10.06.2018 23:50 20,3 C 19,4 C 18,9 C 80 % 1010,4 hPa 0,0 l/m 0 min 0 min 0 W/m 6,8 km/h (2 Bft) 97,87 %
10.06.2018 23:52 20,3 C 18,9 C 18,9 C 81 % 1010,4 hPa 0,0 l/m 0 min 0 min 0 W/m 2,3 km/h (1 Bft) 97,87 %
10.06.2018 23:54 20,3 C 18,9 C 18,9 C 80 % 1010,4 hPa 0,0 l/m 0 min 0 min 0 W/m 6,8 km/h (2 Bft) 97,83 %
10.06.2018 23:56 20,3 C 18,9 C 18,9 C 81 % 1010,5 hPa 0,0 l/m 0 min 0 min 0 W/m 9,0 km/h (2 Bft) 95,74 %
10.06.2018 23:58 20,2 C 18,9 C 18,9 C 81 % 1010,5 hPa 0,0 l/m 0 min 0 min 0 W/m 6,8 km/h (2 Bft) 97,87 %
_ Min-Zeit 07:04 06:32 05:50 19:22 06:28 - - - - 00:00 01:58
Minimum _ 17,5 C 16,7 C 16,7 C 63 % 1008,8 hPa - - - - 0,0 km/h (0 Bft) 91,30 %
_ Max-Zeit 17:02 12:14 16:42 05:42 22:40 09:04 12:08 00:00 12:36 16:28 00:00
Maximum _ 26,7 C 30,6 C 24,4 C 96 % 1010,5 hPa 0,2 l/m 4 min 0 min 860 W/m 18,0 km/h
N-NW (3 Bft)
100,00 %
Durchschnitt _ 22,0 C 22,4 C 20,3 C 82 % 1009,8 hPa #0,2 l/m #7:40 h #0 min. 309 W/m 6,1 km/h (2 Bft) 97,54 %
© 2018 W. Hausmann